Portsmouth, Virginia - KPWR: 24-hour Summary Portsmouth Weather Records Service - Portsmouth, Virginia



LOCAL CLIMATOLOGICAL DATA: This Month's Data
[updated each morning between 7AM and 9AM]
Station: Portsmouth, Virginia - KPWR Latitude: 36° 48' 04" N Longitude: 76° 19' 37" W Elevation (ground): 13 ft. Time Zone: Eastern

BE SURE TO RELOAD/REFRESH THIS SCREEN FOR DAILY UPDATES BY RIGHT-CLICKING THE BACKGROUND The data in this frame and listed below are final adjusted site data for the time period.

-------------------------------------------------------------------------------------------------------------------------------------------
FRIDAY			Temp	Hi	Low	Out	Dew	Wind	Wind	Wind	Hi	Hi	Wind	Heat	THW			Rain	Heat	Cool	In 	In	In 	In 	Wind	Wind	ISS 	Arc.
Date		Time	Out	Temp	Temp	Hum	Pt.	Speed	Dir	Run	Speed	Dir	Chill	Index	Index	Bar  	Rain	Rate	D-D 	D-D 	Temp	Hum	Dew	Heat	Samp	Tx 	Recept	Int.
09/01/17	12:00 a	74.9	75.5	74.8	89	71.4	0.0	SW	0.00	4.0	SW	74.9	78.1	78.1	29.948	0.00	0.00	0.000	0.413	86.7	35	55.8	85.9	1405	1	100.0	60
09/01/17	1:00 a	74.3	74.9	74.3	92	71.8	0.0	SSW	0.00	12.0	SW	74.3	77.2	77.2	29.952	0.00	0.00	0.000	0.388	87.5	39	59.5	87.5	1404	1	100.0	60
09/01/17	2:00 a	72.8	74.3	72.8	93	70.7	0.0	WSW	0.00	12.0	W	72.8	75.5	75.5	29.945	0.03	0.10	0.000	0.325	87.4	40	60.1	87.7	1405	1	100.0	60
09/01/17	3:00 a	71.9	72.8	71.9	95	70.4	0.0	---	0.00	0.0	---	71.9	74.7	74.7	29.953	0.01	0.00	0.000	0.288	86.4	38	57.8	86.3	1405	1	100.0	60
09/01/17	4:00 a	71.9	71.9	71.9	96	70.7	0.0	N	0.00	4.0	N	71.9	74.9	74.9	29.965	0.00	0.00	0.000	0.288	85.4	39	57.6	85.4	1405	1	100.0	60
09/01/17	5:00 a	71.5	71.9	71.5	96	70.3	0.0	---	0.00	0.0	---	71.5	74.4	74.4	29.962	0.00	0.00	0.000	0.271	85.5	41	59.1	85.8	1405	1	100.0	60
09/01/17	6:00 a	71.5	71.5	71.4	97	70.6	0.0	---	0.00	0.0	---	71.5	74.6	74.6	29.988	0.00	0.00	0.000	0.271	85.5	42	59.8	86.0	1405	1	100.0	60
09/01/17	7:00 a	72.4	72.4	71.4	94	70.6	0.0	NE	0.00	20.0	E	72.4	75.1	75.1	30.019	0.00	0.00	0.000	0.308	86.0	40	58.9	86.2	1405	1	100.0	60
09/01/17	8:00 a	72.4	72.6	72.3	85	67.6	5.0	NE	5.00	22.0	NNE	72.4	74.3	74.3	30.043	0.00	0.00	0.000	0.308	86.1	44	61.6	87.1	1405	1	100.0	60
09/01/17	9:00 a	71.2	72.4	71.2	81	65.1	5.0	NE	5.00	24.0	NNE	71.2	72.6	72.6	30.054	0.00	0.00	0.000	0.258	86.1	43	61.0	86.9	1404	1	100.0	60
09/01/17	10:00 a	70.8	71.2	70.8	79	64.0	5.0	NE	5.00	22.0	ENE	70.8	72.0	72.0	30.076	0.00	0.00	0.000	0.242	84.4	40	57.4	84.6	1405	1	100.0	60
09/01/17	11:00 a	71.5	71.5	70.7	76	63.5	4.0	NE	4.00	21.0	E	71.5	72.5	72.5	30.085	0.00	0.00	0.000	0.271	84.4	42	58.8	85.0	1405	1	100.0	60
09/01/17	12:00 p	70.8	71.5	70.8	76	62.9	6.0	NE	6.00	23.0	NE	70.8	71.7	71.7	30.098	0.00	0.00	0.000	0.242	84.6	42	59.0	85.1	1405	1	100.0	60
09/01/17	1:00 p	71.0	71.0	70.6	80	64.5	4.0	NE	4.00	18.0	ENE	71.0	72.3	72.3	30.100	0.00	0.00	0.000	0.250	83.6	38	55.3	83.3	1405	1	100.0	60
09/01/17	2:00 p	71.2	71.9	71.0	77	63.6	5.0	NE	5.00	21.0	NNE	71.2	72.2	72.2	30.100	0.00	0.00	0.000	0.258	84.9	39	57.2	84.8	1405	1	100.0	60
09/01/17	3:00 p	70.5	71.2	70.5	73	61.4	4.0	NE	4.00	21.0	NNE	70.5	71.0	71.0	30.089	0.00	0.00	0.000	0.229	85.3	40	58.2	85.4	1405	1	100.0	60
09/01/17	4:00 p	70.9	71.0	70.5	73	61.8	4.0	NE	4.00	22.0	ENE	70.9	71.5	71.5	30.070	0.00	0.00	0.000	0.246	84.1	36	54.3	83.6	1405	1	100.0	60
09/01/17	5:00 p	69.7	70.8	69.7	74	61.0	4.0	NE	4.00	17.0	NE	69.7	70.3	70.3	30.064	0.00	0.00	0.000	0.196	84.7	38	56.3	84.5	1405	1	100.0	60
09/01/17	6:00 p	69.0	69.7	69.0	76	61.1	4.0	NE	4.00	22.0	N	69.0	70.1	70.1	30.075	0.00	0.00	0.000	0.167	84.8	39	57.1	84.8	1405	1	100.0	60
09/01/17	7:00 p	68.3	69.0	68.3	77	60.8	4.0	NE	4.00	17.0	NNE	68.3	69.4	69.4	30.091	0.00	0.00	0.000	0.138	84.6	39	56.9	84.6	1405	1	100.0	60
09/01/17	8:00 p	65.5	68.3	65.5	85	60.9	5.0	NE	5.00	19.0	NE	65.5	66.4	66.4	30.110	0.01	0.00	0.000	0.021	84.6	37	55.5	84.2	1405	1	100.0	60
09/01/17	9:00 p	63.0	65.5	63.0	93	60.9	5.0	NE	5.00	17.0	NNE	63.0	63.8	63.8	30.104	0.07	0.16	0.083	0.000	83.2	37	54.2	82.5	1405	1	100.0	60
09/01/17	10:00 p	61.4	63.0	61.2	94	59.7	6.0	NE	6.00	18.0	NNE	61.3	62.0	61.9	30.114	0.03	0.09	0.150	0.000	83.1	38	54.9	82.5	1404	1	100.0	60
09/01/17	11:00 p	62.0	62.0	61.3	97	61.1	5.0	NE	5.00	20.0	NE	62.0	62.7	62.7	30.095	0.05	0.08	0.125	0.000	82.8	39	55.3	82.3	1405	1	100.0	60
09/02/17	12:00 a	63.1	63.1	62.0	98	62.5	0.0	ENE	0.00	11.0	NE	63.1	64.0	64.0	30.059	0.08	0.17	0.079	0.000	82.5	40	55.7	82.0	1405	1	100.0	60

SATURDAY		Temp	Hi	Low	Out	Dew	Wind	Wind	Wind	Hi	Hi	Wind	Heat	THW			Rain	Heat	Cool	In 	In	In 	In 	Wind	Wind	ISS 	Arc.
Date		Time	Out	Temp	Temp	Hum	Pt.	Speed	Dir	Run	Speed	Dir	Chill	Index	Index	Bar  	Rain	Rate	D-D 	D-D 	Temp	Hum	Dew	Heat	Samp	Tx 	Recept	Int.
09/02/17	1:00 a	63.2	63.4	63.1	98	62.6	0.0	NNE	0.00	13.0	NNE	63.2	64.1	64.1	30.064	0.05	0.08	0.075	0.000	82.0	40	55.3	81.3	1404	1	100.0	60
09/02/17	2:00 a	63.2	63.2	63.1	98	62.6	0.0	NNE	0.00	4.0	NNE	63.2	64.1	64.1	30.039	0.06	0.10	0.075	0.000	81.8	40	55.1	81.0	1405	1	100.0	60
09/02/17	3:00 a	64.3	64.3	63.2	99	64.0	0.0	NE	0.00	11.0	NE	64.3	65.4	65.4	30.044	0.00	0.00	0.029	0.000	81.6	41	55.6	80.9	1405	1	100.0	60
09/02/17	4:00 a	65.4	65.4	64.3	99	65.1	0.0	NE	0.00	7.0	NE	65.4	66.8	66.8	30.034	0.12	0.70	0.000	0.017	81.4	41	55.4	80.6	1405	1	100.0	60
09/02/17	5:00 a	66.5	66.5	65.3	99	66.2	0.0	NNE	0.00	4.0	NNE	66.5	68.1	68.1	30.039	0.21	2.20	0.000	0.063	81.3	41	55.3	80.5	1405	1	100.0	60
09/02/17	6:00 a	67.6	67.6	66.5	100	67.6	0.0	---	0.00	0.0	---	67.6	69.5	69.5	30.028	0.00	0.00	0.000	0.108	81.3	41	55.3	80.5	1405	1	100.0	60
09/02/17	7:00 a	68.2	68.2	67.6	100	68.2	0.0	---	0.00	0.0	---	68.2	70.4	70.4	30.031	0.00	0.00	0.000	0.133	82.1	40	55.4	81.4	1405	1	100.0	60
09/02/17	8:00 a	69.1	69.1	68.2	100	69.1	0.0	---	0.00	0.0	---	69.1	72.1	72.1	30.041	0.00	0.00	0.000	0.171	81.1	37	52.4	79.8	1405	1	100.0	60
09/02/17	9:00 a	70.3	70.3	69.1	100	70.3	0.0	---	0.00	0.0	---	70.3	73.9	73.9	30.045	0.00	0.00	0.000	0.221	81.4	38	53.4	80.3	1405	1	100.0	60
09/02/17	10:00 a	72.9	72.9	70.3	100	72.9	0.0	---	0.00	0.0	---	72.9	76.5	76.5	30.045	0.00	0.00	0.000	0.329	82.3	39	54.9	81.6	1404	1	100.0	60
09/02/17	11:00 a	75.5	75.5	72.9	100	75.5	0.0	---	0.00	0.0	---	75.5	79.6	79.6	30.036	0.00	0.00	0.000	0.438	83.1	39	55.6	82.7	1405	1	100.0	60
09/02/17	12:00 p	76.4	76.4	75.5	98	75.8	0.0	---	0.00	0.0	---	76.4	80.9	80.9	30.026	0.00	0.00	0.000	0.475	84.2	39	56.6	84.3	1406	1	100.0	60
09/02/17	1:00 p	77.6	77.6	76.3	96	76.4	0.0	---	0.00	0.0	---	77.6	82.8	82.8	30.011	0.00	0.00	0.000	0.525	84.9	36	55.0	84.3	1404	1	100.0	60
09/02/17	2:00 p	79.1	79.1	77.6	96	77.9	0.0	---	0.00	0.0	---	79.1	86.2	86.2	29.987	0.01	0.00	0.000	0.587	84.5	38	56.1	84.3	1405	1	100.0	60
09/02/17	3:00 p	79.4	79.4	79.1	93	77.2	0.0	---	0.00	0.0	---	79.4	86.2	86.2	29.981	0.00	0.00	0.000	0.600	85.0	40	58.0	85.1	1405	1	100.0	60
09/02/17	4:00 p	79.4	79.4	79.1	92	76.9	0.0	---	0.00	0.0	---	79.4	86.0	86.0	29.975	0.00	0.00	0.000	0.600	84.4	37	55.3	84.0	1405	1	100.0	60
09/02/17	5:00 p	80.4	80.4	79.4	89	76.9	0.0	SSW	0.00	4.0	SSW	80.4	87.5	87.5	29.968	0.00	0.00	0.000	0.642	86.1	39	58.2	86.1	1405	1	100.0	60
09/02/17	6:00 p	78.6	80.4	78.6	89	75.1	0.0	SE	0.00	5.0	SE	78.6	83.8	83.8	29.969	0.00	0.00	0.000	0.567	86.5	40	59.3	86.8	1405	1	100.0	60
09/02/17	7:00 p	77.1	78.6	77.1	93	74.9	0.0	---	0.00	0.0	---	77.1	81.5	81.5	29.981	0.07	0.24	0.000	0.504	84.2	35	53.6	83.5	1405	1	100.0	60
09/02/17	8:00 p	74.9	77.1	74.9	96	73.7	0.0	---	0.00	0.0	---	74.9	78.6	78.6	29.983	0.17	0.66	0.000	0.413	84.9	38	56.5	84.7	1405	1	100.0	60
09/02/17	9:00 p	73.8	74.9	73.8	97	72.9	0.0	---	0.00	0.0	---	73.8	77.0	77.0	29.988	0.03	0.12	0.000	0.367	85.2	37	56.0	84.8	1405	1	100.0	60
09/02/17	10:00 p	73.0	73.8	73.0	98	72.4	0.0	SE	0.00	4.0	SE	73.0	76.3	76.3	29.980	0.00	0.00	0.000	0.333	83.9	36	54.1	83.3	1405	1	100.0	60
09/02/17	11:00 p	72.1	73.0	72.1	98	71.5	0.0	---	0.00	0.0	---	72.1	75.4	75.4	29.986	0.00	0.00	0.000	0.296	84.1	37	55.0	83.8	1405	1	100.0	60
09/03/17	12:00 a	71.4	72.1	71.4	98	70.8	0.0	---	0.00	0.0	---	71.4	74.7	74.7	29.969	0.00	0.00	0.000	0.267	83.9	38	55.6	83.7	1405	1	100.0	60

SUNDAY			Temp	Hi	Low	Out	Dew	Wind	Wind	Wind	Hi	Hi	Wind	Heat	THW			Rain	Heat	Cool	In 	In	In 	In 	Wind	Wind	ISS 	Arc.
Date		Time	Out	Temp	Temp	Hum	Pt.	Speed	Dir	Run	Speed	Dir	Chill	Index	Index	Bar  	Rain	Rate	D-D 	D-D 	Temp	Hum	Dew	Heat	Samp	Tx 	Recept	Int.
09/03/17	1:00 a	70.7	71.4	70.7	99	70.4	0.0	---	0.00	0.0	---	70.7	74.1	74.1	29.953	0.00	0.00	0.000	0.237	83.8	38	55.5	83.6	1403	1	100.0	60
09/03/17	2:00 a	71.5	71.5	70.7	100	71.5	0.0	---	0.00	0.0	---	71.5	75.1	75.1	29.958	0.00	0.00	0.000	0.271	83.7	39	56.1	83.6	1405	1	100.0	60
09/03/17	3:00 a	71.9	72.1	71.5	99	71.6	0.0	---	0.00	0.0	---	71.9	75.3	75.3	29.947	0.00	0.00	0.000	0.288	83.6	39	56.0	83.5	1405	1	100.0	60
09/03/17	4:00 a	71.8	71.9	71.4	100	71.8	0.0	---	0.00	0.0	---	71.8	75.4	75.4	29.942	0.00	0.00	0.000	0.283	83.5	39	55.9	83.3	1405	1	100.0	60
09/03/17	5:00 a	71.2	71.8	71.2	100	71.2	0.0	---	0.00	0.0	---	71.2	74.9	74.9	29.935	0.00	0.00	0.000	0.258	83.5	40	56.6	83.5	1405	1	100.0	60
09/03/17	6:00 a	71.1	71.4	71.1	99	70.8	0.0	---	0.00	0.0	---	71.1	74.6	74.6	29.943	0.00	0.00	0.000	0.254	82.3	36	52.7	81.2	1405	1	100.0	60
09/03/17	7:00 a	70.1	71.1	70.1	100	70.1	0.0	---	0.00	0.0	---	70.1	73.6	73.6	29.957	0.00	0.00	0.000	0.212	82.6	38	54.4	81.8	1405	1	100.0	60
09/03/17	8:00 a	69.4	70.1	69.4	99	69.1	0.0	NW	0.00	7.0	NW	69.4	72.4	72.4	29.968	0.00	0.00	0.000	0.183	82.3	37	53.4	81.3	1405	1	100.0	60
09/03/17	9:00 a	69.0	69.4	69.0	97	68.1	0.0	WSW	0.00	4.0	WSW	69.0	71.5	71.5	29.970	0.00	0.00	0.000	0.167	83.7	38	55.4	83.4	1405	1	100.0	60
09/03/17	10:00 a	71.0	71.0	69.0	89	67.6	0.0	WNW	0.00	14.0	WNW	71.0	73.1	73.1	29.979	0.00	0.00	0.000	0.250	84.5	35	53.8	83.8	1405	1	100.0	60
09/03/17	11:00 a	72.4	72.4	71.0	82	66.6	0.0	W	0.00	12.0	W	72.4	74.1	74.1	29.992	0.00	0.00	0.000	0.308	86.3	36	56.2	85.8	1405	1	100.0	60
09/03/17	12:00 p	74.2	74.2	72.3	78	66.9	0.0	WNW	0.00	14.0	WNW	74.2	76.2	76.2	29.993	0.00	0.00	0.000	0.383	88.1	35	57.0	87.0	1405	1	100.0	60
09/03/17	1:00 p	75.6	75.6	74.2	72	65.9	0.0	WNW	0.00	14.0	W	75.6	77.6	77.6	29.984	0.00	0.00	0.000	0.442	88.8	37	59.2	88.6	1404	1	100.0	60
09/03/17	2:00 p	76.5	76.5	75.6	74	67.6	0.0	WNW	0.00	14.0	W	76.5	78.8	78.8	29.982	0.00	0.00	0.000	0.479	90.0	34	57.9	89.7	1406	1	100.0	60
09/03/17	3:00 p	77.6	77.6	76.5	70	67.0	0.0	WNW	0.00	13.0	NNW	77.6	79.6	79.6	29.966	0.00	0.00	0.000	0.525	90.7	35	59.3	90.8	1404	1	100.0	60
09/03/17	4:00 p	77.3	78.1	77.3	70	66.7	0.0	WNW	0.00	12.0	WNW	77.3	79.2	79.2	29.957	0.00	0.00	0.000	0.513	91.4	31	56.5	90.9	1405	1	100.0	60
09/03/17	5:00 p	78.2	78.3	77.3	69	67.2	0.0	W	0.00	11.0	SW	78.2	80.1	80.1	29.959	0.00	0.00	0.000	0.550	91.5	34	59.2	91.7	1405	1	100.0	60
09/03/17	6:00 p	77.8	78.2	77.8	69	66.8	0.0	W	0.00	16.0	W	77.8	79.7	79.7	29.963	0.00	0.00	0.000	0.533	90.8	31	56.0	90.2	1405	1	100.0	60
09/03/17	7:00 p	76.5	77.8	76.5	72	66.8	0.0	WNW	0.00	12.0	W	76.5	78.6	78.6	29.975	0.00	0.00	0.000	0.479	90.2	32	56.4	89.6	1405	1	100.0	60
09/03/17	8:00 p	74.0	76.5	74.0	79	67.1	0.0	---	0.00	0.0	---	74.0	76.0	76.0	29.993	0.00	0.00	0.000	0.375	90.0	32	56.2	89.4	1405	1	100.0	60
09/03/17	9:00 p	71.2	74.0	71.2	84	66.1	0.0	---	0.00	0.0	---	71.2	72.9	72.9	30.007	0.00	0.00	0.000	0.258	87.7	32	54.2	86.0	1405	1	100.0	60
09/03/17	10:00 p	69.1	71.2	69.1	88	65.4	0.0	---	0.00	0.0	---	69.1	71.0	71.0	30.018	0.00	0.00	0.000	0.171	87.4	33	54.8	86.0	1405	1	100.0	60
09/03/17	11:00 p	67.6	69.1	67.6	91	64.9	0.0	---	0.00	0.0	---	67.6	69.3	69.3	30.018	0.00	0.00	0.000	0.108	85.6	32	52.4	84.3	1405	1	100.0	60

MONDAY			Temp	Hi	Low	Out	Dew	Wind	Wind	Wind	Hi	Hi	Wind	Heat	THW			Rain	Heat	Cool	In 	In	In 	In 	Wind	Wind	ISS 	Arc.
Date		Time	Out	Temp	Temp	Hum	Pt.	Speed	Dir	Run	Speed	Dir	Chill	Index	Index	Bar  	Rain	Rate	D-D 	D-D 	Temp	Hum	Dew	Heat	Samp	Tx 	Recept	Int.
09/04/17	1:00 a	65.2	66.3	65.2	93	63.1	0.0	---	0.00	0.0	---	65.2	66.4	66.4	30.028	0.00	0.00	0.000	0.008	85.2	34	53.7	84.2	1403	1	100.0	60
09/04/17	2:00 a	64.4	65.2	64.4	94	62.6	0.0	---	0.00	0.0	---	64.4	65.4	65.4	30.024	0.00	0.00	0.025	0.000	84.3	35	53.7	83.6	1406	1	100.0	60
09/04/17	3:00 a	63.8	64.4	63.8	94	62.0	0.0	---	0.00	0.0	---	63.8	64.7	64.7	30.023	0.00	0.00	0.050	0.000	83.7	36	53.9	83.0	1404	1	100.0	60
09/04/17	4:00 a	63.1	63.8	63.1	95	61.6	0.0	---	0.00	0.0	---	63.1	63.9	63.9	30.023	0.00	0.00	0.079	0.000	83.2	37	54.2	82.5	1405	1	100.0	60
09/04/17	5:00 a	62.2	63.1	62.2	95	60.8	0.0	---	0.00	0.0	---	62.2	62.9	62.9	30.027	0.00	0.00	0.117	0.000	82.7	37	53.8	81.8	1405	1	100.0	60
09/04/17	6:00 a	61.6	62.2	61.6	96	60.4	0.0	---	0.00	0.0	---	61.6	62.2	62.2	30.038	0.00	0.00	0.142	0.000	82.3	38	54.2	81.4	1405	1	100.0	60
09/04/17	7:00 a	61.0	61.6	61.0	96	59.9	0.0	---	0.00	0.0	---	61.0	61.5	61.5	30.052	0.00	0.00	0.167	0.000	81.8	38	53.7	80.8	1405	1	100.0	60
09/04/17	8:00 a	61.9	61.9	60.9	98	61.3	0.0	---	0.00	0.0	---	61.9	62.6	62.6	30.063	0.00	0.00	0.129	0.000	82.4	38	54.2	81.6	1405	1	100.0	60
09/04/17	9:00 a	65.2	65.2	61.9	99	64.9	0.0	---	0.00	0.0	---	65.2	66.5	66.5	30.063	0.00	0.00	0.000	0.008	83.5	38	55.2	83.1	1405	1	100.0	60
09/04/17	10:00 a	70.8	70.8	65.2	92	68.4	0.0	SSW	0.00	4.0	WSW	70.8	73.2	73.2	30.063	0.00	0.00	0.000	0.242	85.4	38	56.9	85.2	1405	1	100.0	60
09/04/17	11:00 a	76.2	76.2	70.8	75	67.7	0.0	NE	0.00	5.0	NE	76.2	78.6	78.6	30.062	0.00	0.00	0.000	0.467	86.3	35	55.4	85.6	1405	1	100.0	60
09/04/17	12:00 p	79.4	79.4	76.2	66	67.0	0.0	SSE	0.00	5.0	SSE	79.4	81.3	81.3	30.050	0.00	0.00	0.000	0.600	88.6	37	59.0	88.3	1405	1	100.0	60
09/04/17	1:00 p	81.2	81.2	79.4	60	66.0	0.0	W	0.00	5.0	WSW	81.2	83.0	83.0	30.031	0.00	0.00	0.000	0.675	89.1	35	57.9	88.5	1405	1	100.0	60
09/04/17	2:00 p	82.0	82.0	81.2	54	63.7	0.0	W	0.00	14.0	W	82.0	83.2	83.2	30.015	0.00	0.00	0.000	0.708	91.6	37	61.6	92.8	1405	1	100.0	60
09/04/17	3:00 p	83.1	83.1	82.0	54	64.7	0.0	W	0.00	16.0	WSW	83.1	84.9	84.9	29.996	0.00	0.00	0.000	0.754	91.7	33	58.5	91.7	1405	1	100.0	60
09/04/17	4:00 p	83.6	83.6	83.0	57	66.8	0.0	WSW	0.00	13.0	SW	83.6	86.3	86.3	29.977	0.00	0.00	0.000	0.775	94.4	33	60.9	95.4	1404	1	100.0	60
09/04/17	5:00 p	83.3	83.8	83.3	57	66.5	0.0	SW	0.00	12.0	SSW	83.3	85.8	85.8	29.960	0.00	0.00	0.000	0.763	92.9	33	59.6	93.3	1405	1	100.0	60
09/04/17	6:00 p	82.4	83.4	82.4	61	67.6	0.0	SW	0.00	13.0	SSW	82.4	85.0	85.0	29.954	0.00	0.00	0.000	0.725	91.6	38	62.4	93.1	1405	1	100.0	60
09/04/17	7:00 p	80.2	82.4	80.2	66	67.8	0.0	SSW	0.00	12.0	SW	80.2	82.4	82.4	29.946	0.00	0.00	0.000	0.633	88.0	35	56.9	86.8	1405	1	100.0	60
09/04/17	8:00 p	77.5	80.1	77.5	71	67.4	0.0	WSW	0.00	4.0	WSW	77.5	79.6	79.6	29.942	0.00	0.00	0.000	0.521	88.3	38	59.5	88.1	1405	1	100.0	60
09/04/17	9:00 p	75.1	77.5	75.1	76	67.0	0.0	---	0.00	0.0	---	75.1	77.3	77.3	29.946	0.00	0.00	0.000	0.421	85.5	36	55.5	84.9	1405	1	100.0	60
09/04/17	10:00 p	73.4	75.1	73.4	81	67.2	0.0	SSW	0.00	6.0	SW	73.4	75.3	75.3	29.935	0.00	0.00	0.000	0.350	85.3	38	56.8	85.1	1405	1	100.0	60
09/04/17	11:00 p	71.9	73.4	71.9	86	67.5	0.0	SE	0.00	5.0	ESE	71.9	73.8	73.8	29.927	0.00	0.00	0.000	0.288	83.7	37	54.7	83.2	1405	1	100.0	60
09/05/17	12:00 a	71.2	71.9	71.2	90	68.1	0.0	SSW	0.00	10.0	SW	71.2	73.4	73.4	29.926	0.00	0.00	0.000	0.258	83.0	40	56.2	82.7	1405	1	100.0	60

TUESDAY			Temp	Hi	Low	Out	Dew	Wind	Wind	Wind	Hi	Hi	Wind	Heat	THW			Rain	Heat	Cool	In 	In	In 	In 	Wind	Wind	ISS 	Arc.
Date		Time	Out	Temp	Temp	Hum	Pt.	Speed	Dir	Run	Speed	Dir	Chill	Index	Index	Bar  	Rain	Rate	D-D 	D-D 	Temp	Hum	Dew	Heat	Samp	Tx 	Recept	Int.
09/05/17	1:00 a	71.0	71.2	71.0	92	68.6	0.0	SSW	0.00	7.0	SSE	71.0	73.4	73.4	29.936	0.00	0.00	0.000	0.250	82.8	42	57.4	82.7	1404	1	100.0	60
09/05/17	2:00 a	70.8	71.1	70.8	93	68.7	0.0	SSE	0.00	13.0	SSW	70.8	73.3	73.3	29.935	0.00	0.00	0.000	0.242	82.0	40	55.3	81.3	1405	1	100.0	60
09/05/17	3:00 a	70.3	70.8	70.3	94	68.5	0.0	SW	0.00	11.0	SW	70.3	72.8	72.8	29.932	0.00	0.00	0.000	0.221	80.8	42	55.6	80.0	1405	1	100.0	60
09/05/17	4:00 a	69.4	70.2	69.4	94	67.6	0.0	---	0.00	0.0	---	69.4	71.7	71.7	29.934	0.00	0.00	0.000	0.183	80.7	43	56.1	80.1	1405	1	100.0	60
09/05/17	5:00 a	68.8	69.4	68.8	95	67.3	0.0	---	0.00	0.0	---	68.8	71.0	71.0	29.932	0.00	0.00	0.000	0.158	80.3	45	57.0	79.9	1404	1	100.0	60
09/05/17	6:00 a	68.5	68.8	68.5	96	67.3	0.0	---	0.00	0.0	---	68.5	70.7	70.7	29.924	0.00	0.00	0.000	0.146	80.1	45	56.8	79.7	1405	1	100.0	60
09/05/17	7:00 a	68.4	68.5	68.4	97	67.5	0.0	---	0.00	0.0	---	68.4	70.6	70.6	29.927	0.00	0.00	0.000	0.142	84.9	41	58.6	85.2	1405	1	100.0	60
09/05/17	8:00 a	69.7	69.7	68.4	98	69.1	0.0	---	0.00	0.0	---	69.7	72.7	72.7	29.925	0.00	0.00	0.000	0.196	84.1	38	55.7	84.0	1405	1	100.0	60
09/05/17	9:00 a	72.7	72.7	69.7	98	72.1	0.0	WSW	0.00	13.0	WSW	72.7	76.0	76.0	29.920	0.00	0.00	0.000	0.321	83.7	41	57.5	84.0	1405	1	100.0	60
09/05/17	10:00 a	77.1	77.1	72.7	88	73.3	0.0	SW	0.00	15.0	S	77.1	81.0	81.0	29.915	0.00	0.00	0.000	0.504	82.1	43	57.4	81.8	1405	1	100.0	60
09/05/17	11:00 a	81.1	81.1	77.1	80	74.3	0.0	SW	0.00	15.0	SW	81.1	86.7	86.7	29.899	0.00	0.00	0.000	0.671	82.2	42	56.8	81.8	1405	1	100.0	60
09/05/17	12:00 p	83.8	83.8	81.1	68	72.1	4.0	SW	4.00	17.0	SSE	83.8	89.7	89.7	29.883	0.00	0.00	0.000	0.783	84.3	41	58.0	84.7	1405	1	100.0	60
09/05/17	1:00 p	85.8	85.9	83.8	67	73.6	4.0	SSW	4.00	20.0	SW	85.8	93.7	93.7	29.863	0.00	0.00	0.000	0.867	84.6	41	58.3	85.0	1405	1	100.0	60
09/05/17	2:00 p	87.0	87.0	85.9	64	73.3	5.0	SSW	5.00	24.0	SSE	87.0	95.2	95.2	29.850	0.00	0.00	0.000	0.917	86.7	40	59.5	87.0	1405	1	100.0	60
09/05/17	3:00 p	87.5	87.7	87.0	64	73.8	4.0	SSW	4.00	22.0	SW	87.5	95.8	95.8	29.823	0.00	0.00	0.000	0.938	86.2	39	58.3	86.2	1405	1	100.0	60
09/05/17	4:00 p	87.5	87.8	87.5	67	75.2	4.0	SW	4.00	23.0	SSE	87.5	97.0	97.0	29.807	0.00	0.00	0.000	0.938	88.5	39	60.4	88.8	1405	1	100.0	60
09/05/17	5:00 p	87.2	87.6	87.2	72	77.1	4.0	SE	4.00	18.0	SSE	87.2	98.7	98.7	29.794	0.00	0.00	0.000	0.925	87.3	36	57.1	86.6	1405	1	100.0	60
09/05/17	6:00 p	85.0	87.2	85.0	78	77.4	0.0	SW	0.00	16.0	SW	85.0	95.7	95.7	29.809	0.00	0.00	0.000	0.833	88.0	40	60.7	88.1	1405	1	100.0	60
09/05/17	7:00 p	83.0	85.0	83.0	79	75.8	0.0	SW	0.00	7.0	SW	83.0	91.4	91.4	29.822	0.00	0.00	0.000	0.750	87.2	39	59.2	87.3	1404	1	100.0	60
09/05/17	8:00 p	79.1	83.0	79.1	90	75.9	0.0	S	0.00	10.0	S	79.1	84.9	84.9	29.832	0.08	1.65	0.000	0.587	88.2	39	60.1	88.2	1405	1	100.0	60
09/05/17	9:00 p	76.7	79.1	76.7	93	74.5	0.0	NE	0.00	5.0	NE	76.7	80.8	80.8	29.853	0.00	0.00	0.000	0.487	86.5	38	57.9	86.4	1405	1	100.0	60
09/05/17	10:00 p	75.8	76.8	75.8	95	74.3	0.0	SE	0.00	7.0	SW	75.8	79.7	79.7	29.846	0.00	0.00	0.000	0.450	86.4	39	58.5	86.5	1405	1	100.0	60
09/05/17	11:00 p	75.7	75.9	75.7	96	74.5	0.0	SSE	0.00	4.0	SSE	75.7	79.7	79.7	29.855	0.00	0.00	0.000	0.446	85.9	39	58.1	85.9	1405	1	100.0	60
09/06/17	12:00 a	75.6	75.7	75.6	95	74.1	0.0	SE	0.00	17.0	SE	75.6	79.5	79.5	29.859	0.00	0.00	0.000	0.442	83.5	38	55.2	83.1	1405	1	100.0	60

WEDNESDAY		Temp	Hi	Low	Out	Dew	Wind	Wind	Wind	Hi	Hi	Wind	Heat	THW			Rain	Heat	Cool	In 	In	In 	In 	Wind	Wind	ISS 	Arc.
Date		Time	Out	Temp	Temp	Hum	Pt.	Speed	Dir	Run	Speed	Dir	Chill	Index	Index	Bar  	Rain	Rate	D-D 	D-D 	Temp	Hum	Dew	Heat	Samp	Tx 	Recept	Int.
09/06/17	1:00 a	75.6	75.6	75.5	94	73.8	0.0	SSE	0.00	10.0	S	75.6	79.4	79.4	29.846	0.00	0.00	0.000	0.442	82.5	38	54.3	81.7	1404	1	100.0	60
09/06/17	2:00 a	75.0	75.6	75.0	89	71.5	0.0	SSW	0.00	13.0	S	75.0	78.3	78.3	29.839	0.00	0.00	0.000	0.417	82.8	39	55.3	82.3	1405	1	100.0	60
09/06/17	3:00 a	72.4	75.0	72.4	88	68.6	0.0	SW	0.00	16.0	SW	72.4	74.6	74.6	29.818	0.01	0.00	0.000	0.308	82.6	39	55.1	82.0	1405	1	100.0	60
09/06/17	4:00 a	71.2	72.4	71.2	91	68.4	0.0	WNW	0.00	7.0	N	71.2	73.5	73.5	29.811	0.00	0.00	0.000	0.258	81.0	38	53.0	79.8	1405	1	100.0	60
09/06/17	5:00 a	70.3	71.2	70.3	94	68.5	0.0	---	0.00	0.0	---	70.3	72.8	72.8	29.826	0.00	0.00	0.000	0.221	80.9	40	54.3	79.9	1405	1	100.0	60
09/06/17	6:00 a	70.3	70.3	70.2	96	69.1	0.0	---	0.00	0.0	---	70.3	73.1	73.1	29.803	0.00	0.00	0.000	0.221	80.8	40	54.2	79.8	1405	1	100.0	60
09/06/17	7:00 a	70.0	70.5	70.0	96	68.8	0.0	---	0.00	0.0	---	70.0	72.7	72.7	29.838	0.01	0.00	0.000	0.208	85.8	36	55.8	85.3	1405	1	100.0	60
09/06/17	8:00 a	70.0	70.1	70.0	97	69.1	0.0	---	0.00	0.0	---	70.0	72.9	72.9	29.867	0.00	0.00	0.000	0.208	84.2	34	52.8	83.3	1404	1	100.0	60
09/06/17	9:00 a	73.0	73.0	70.0	94	71.2	0.0	WSW	0.00	5.0	WSW	73.0	75.7	75.7	29.864	0.00	0.00	0.000	0.333	83.0	37	54.0	82.2	1405	1	100.0	60
09/06/17	10:00 a	75.3	75.3	73.0	87	71.2	0.0	SSW	0.00	4.0	SW	75.3	78.5	78.5	29.876	0.00	0.00	0.000	0.429	81.8	40	55.1	81.0	1405	1	100.0	60
09/06/17	11:00 a	78.8	78.8	75.3	81	72.5	0.0	SSE	0.00	5.0	SSE	78.8	82.7	82.7	29.869	0.00	0.00	0.000	0.575	81.5	38	53.4	80.4	1405	1	100.0	60
09/06/17	12:00 p	82.1	82.1	78.8	77	74.2	0.0	S	0.00	10.0	SE	82.1	88.3	88.3	29.858	0.00	0.00	0.000	0.712	84.0	40	57.1	84.3	1405	1	100.0	60
09/06/17	1:00 p	83.7	83.7	82.1	76	75.3	0.0	ESE	0.00	13.0	E	83.7	92.3	92.3	29.837	0.00	0.00	0.000	0.779	83.8	38	55.5	83.6	1405	1	100.0	60
09/06/17	2:00 p	84.8	84.8	83.7	73	75.2	0.0	S	0.00	12.0	ESE	84.8	93.5	93.5	29.821	0.00	0.00	0.000	0.825	86.5	41	60.0	87.0	1405	1	100.0	60
09/06/17	3:00 p	84.1	84.9	84.1	74	74.9	0.0	S	0.00	12.0	WSW	84.1	92.5	92.5	29.798	0.00	0.00	0.000	0.796	85.1	37	55.9	84.7	1405	1	100.0	60
09/06/17	4:00 p	79.2	84.1	79.2	87	75.0	0.0	SSE	0.00	13.0	ESE	79.2	84.5	84.5	29.792	0.02	0.06	0.000	0.592	86.6	40	59.4	86.9	1405	1	100.0	60
09/06/17	5:00 p	75.5	79.2	75.5	94	73.7	0.0	SE	0.00	5.0	SE	75.5	79.3	79.3	29.794	0.23	2.85	0.000	0.438	84.0	36	54.2	83.5	1405	1	100.0	60
09/06/17	6:00 p	74.1	75.5	74.1	95	72.6	0.0	SE	0.00	4.0	SE	74.1	77.2	77.2	29.800	0.03	0.19	0.000	0.379	84.5	39	56.8	84.5	1405	1	100.0	60
09/06/17	7:00 p	68.5	74.1	68.5	94	66.7	4.0	N	4.00	26.0	NNW	68.5	70.6	70.6	29.853	0.01	0.00	0.000	0.146	87.3	40	60.0	87.6	1405	1	100.0	60
09/06/17	8:00 p	65.8	68.5	65.8	95	64.3	4.0	N	4.00	24.0	WNW	65.8	67.2	67.2	29.870	0.06	0.28	0.000	0.033	88.6	39	60.5	88.9	1405	1	100.0	60
09/06/17	9:00 p	66.0	66.0	65.7	96	64.8	0.0	NE	0.00	14.0	NE	66.0	67.4	67.4	29.880	0.01	0.00	0.000	0.042	85.6	35	54.8	84.9	1405	1	100.0	60
09/06/17	10:00 p	66.0	66.2	66.0	94	64.2	0.0	---	0.00	0.0	---	66.0	67.4	67.4	29.886	0.00	0.00	0.000	0.042	85.5	37	56.3	85.1	1404	1	100.0	60
09/06/17	11:00 p	66.2	66.2	66.0	96	65.0	0.0	---	0.00	0.0	---	66.2	67.7	67.7	29.883	0.00	0.00	0.000	0.050	85.2	38	56.7	85.0	1406	1	100.0	60
09/07/17	12:00 a	66.3	66.3	66.1	97	65.4	0.0	---	0.00	0.0	---	66.3	67.8	67.8	29.908	0.00	0.00	0.000	0.054	84.8	39	57.1	84.8	1404	1	100.0	60

THURSDAY		Temp	Hi	Low	Out	Dew	Wind	Wind	Wind	Hi	Hi	Wind	Heat	THW			Rain	Heat	Cool	In 	In	In 	In 	Wind	Wind	ISS 	Arc.
Date		Time	Out	Temp	Temp	Hum	Pt.	Speed	Dir	Run	Speed	Dir	Chill	Index	Index	Bar  	Rain	Rate	D-D 	D-D 	Temp	Hum	Dew	Heat	Samp	Tx 	Recept	Int.
09/07/17	1:00 a	66.3	66.4	66.3	97	65.4	0.0	---	0.00	0.0	---	66.3	67.8	67.8	29.921	0.00	0.00	0.000	0.054	83.5	37	54.5	82.9	1404	1	100.0	60
09/07/17	2:00 a	66.1	66.3	66.1	98	65.5	0.0	---	0.00	0.0	---	66.1	67.6	67.6	29.910	0.02	0.08	0.000	0.046	83.3	39	55.8	83.0	1405	1	100.0	60
09/07/17	3:00 a	65.8	66.1	65.8	98	65.2	0.0	---	0.00	0.0	---	65.8	67.2	67.2	29.915	0.00	0.00	0.000	0.033	83.2	39	55.7	82.8	1405	1	100.0	60
09/07/17	4:00 a	65.3	65.9	65.2	98	64.7	0.0	---	0.00	0.0	---	65.3	66.6	66.6	29.918	0.00	0.00	0.000	0.013	83.0	40	56.2	82.7	1405	1	100.0	60
09/07/17	5:00 a	64.2	65.2	64.2	97	63.3	0.0	---	0.00	0.0	---	64.2	65.3	65.3	29.924	0.00	0.00	0.033	0.000	82.7	41	56.6	82.4	1405	1	100.0	60
09/07/17	6:00 a	63.2	64.2	63.2	97	62.3	0.0	---	0.00	0.0	---	63.2	64.1	64.1	29.927	0.00	0.00	0.075	0.000	83.2	41	57.1	83.2	1405	1	100.0	60
09/07/17	7:00 a	62.1	63.2	62.1	97	61.2	0.0	---	0.00	0.0	---	62.1	62.9	62.9	29.955	0.00	0.00	0.121	0.000	83.4	41	57.2	83.5	1405	1	100.0	60
09/07/17	8:00 a	61.6	62.1	61.4	97	60.7	0.0	---	0.00	0.0	---	61.6	62.3	62.3	29.970	0.00	0.00	0.142	0.000	82.7	37	53.8	81.8	1405	1	100.0	60
09/07/17	9:00 a	62.8	62.9	61.6	92	60.4	0.0	WSW	0.00	7.0	W	62.8	63.5	63.5	29.983	0.00	0.00	0.092	0.000	83.3	38	55.0	82.8	1405	1	100.0	60
09/07/17	10:00 a	65.0	65.0	62.8	90	62.0	0.0	WSW	0.00	11.0	SW	65.0	66.0	66.0	30.008	0.00	0.00	0.000	0.000	83.5	39	55.9	83.3	1404	1	100.0	60
09/07/17	11:00 a	67.3	67.3	65.0	85	62.6	0.0	WNW	0.00	12.0	WSW	67.3	68.7	68.7	30.020	0.00	0.00	0.000	0.096	84.8	39	57.1	84.8	1406	1	100.0	60
09/07/17	12:00 p	69.3	69.3	67.3	80	62.9	0.0	WNW	0.00	13.0	WSW	69.3	70.7	70.7	30.010	0.00	0.00	0.000	0.179	85.1	33	52.8	83.9	1404	1	100.0	60
09/07/17	1:00 p	72.1	72.1	69.3	69	61.4	0.0	NW	0.00	7.0	W	72.1	72.8	72.8	30.000	0.00	0.00	0.000	0.296	86.9	38	58.2	86.8	1405	1	100.0	60
09/07/17	2:00 p	73.2	73.2	72.1	62	59.4	0.0	W	0.00	15.0	W	73.2	73.8	73.8	29.997	0.00	0.00	0.000	0.342	88.5	38	59.7	88.5	1405	1	100.0	60
09/07/17	3:00 p	74.1	74.1	73.2	58	58.4	0.0	WNW	0.00	15.0	W	74.1	74.6	74.6	29.990	0.00	0.00	0.000	0.379	88.7	31	54.2	86.9	1405	1	100.0	60
09/07/17	4:00 p	75.1	75.1	74.1	53	56.8	0.0	WSW	0.00	14.0	NW	75.1	75.4	75.4	29.986	0.00	0.00	0.000	0.421	90.9	36	60.3	91.4	1405	1	100.0	60
09/07/17	5:00 p	74.9	75.3	74.9	53	56.6	0.0	WNW	0.00	15.0	WNW	74.9	75.2	75.2	29.996	0.00	0.00	0.000	0.413	91.6	28	53.9	90.3	1405	1	100.0	60
09/07/17	6:00 p	74.6	75.0	74.6	54	56.9	0.0	WSW	0.00	11.0	WNW	74.6	74.9	74.9	30.006	0.00	0.00	0.000	0.400	91.2	33	58.1	91.1	1405	1	100.0	60
09/07/17	7:00 p	72.9	74.6	72.9	57	56.8	0.0	W	0.00	14.0	WNW	72.9	73.0	73.0	30.009	0.00	0.00	0.000	0.329	91.3	34	59.0	91.4	1405	1	100.0	60
09/07/17	8:00 p	69.9	72.9	69.9	65	57.6	0.0	WNW	0.00	5.0	W	69.9	69.6	69.6	30.027	0.00	0.00	0.000	0.204	89.7	31	55.0	88.6	1405	1	100.0	60
09/07/17	9:00 p	66.4	69.9	66.4	76	58.6	0.0	NW	0.00	4.0	NW	66.4	67.1	67.1	30.053	0.00	0.00	0.000	0.058	88.0	33	55.3	86.4	1405	1	100.0	60
09/07/17	10:00 p	63.7	66.4	63.7	83	58.4	0.0	---	0.00	0.0	---	63.7	64.2	64.2	30.071	0.00	0.00	0.054	0.000	87.3	34	55.5	86.2	1405	1	100.0	60
09/07/17	11:00 p	62.0	63.7	62.0	87	58.1	0.0	---	0.00	0.0	---	62.0	62.4	62.4	30.087	0.00	0.00	0.125	0.000	86.4	35	55.5	85.7	1405	1	100.0	60
09/08/17	12:00 a	60.7	62.0	60.7	89	57.4	0.0	---	0.00	0.0	---	60.7	61.0	61.0	30.099	0.00	0.00	0.179	0.000	85.4	36	55.4	84.8	1405	1	100.0	60

FRIDAY			Temp	Hi	Low	Out	Dew	Wind	Wind	Wind	Hi	Hi	Wind	Heat	THW			Rain	Heat	Cool	In 	In	In 	In 	Wind	Wind	ISS 	Arc.
Date		Time	Out	Temp	Temp	Hum	Pt.	Speed	Dir	Run	Speed	Dir	Chill	Index	Index	Bar  	Rain	Rate	D-D 	D-D 	Temp	Hum	Dew	Heat	Samp	Tx 	Recept	Int.
09/08/17	1:00 a	59.5	60.7	59.5	91	56.9	0.0	---	0.00	0.0	---	59.5	59.8	59.8	30.105	0.00	0.00	0.229	0.000	84.7	36	54.8	84.1	1403	1	100.0	60
09/08/17	2:00 a	58.5	59.5	58.5	92	56.2	0.0	---	0.00	0.0	---	58.5	58.7	58.7	30.108	0.00	0.00	0.271	0.000	84.2	37	55.1	83.9	1405	1	100.0	60
09/08/17	3:00 a	57.6	58.5	57.6	93	55.6	0.0	---	0.00	0.0	---	57.6	57.8	57.8	30.115	0.00	0.00	0.308	0.000	83.5	37	54.5	82.9	1405	1	100.0	60
09/08/17	4:00 a	57.0	57.6	57.0	94	55.3	0.0	---	0.00	0.0	---	57.0	57.2	57.2	30.114	0.00	0.00	0.333	0.000	83.0	37	54.0	82.2	1405	1	100.0	60
09/08/17	5:00 a	56.4	57.0	56.3	95	55.0	0.0	---	0.00	0.0	---	56.4	56.6	56.6	30.119	0.00	0.00	0.358	0.000	82.3	37	53.4	81.3	1405	1	100.0	60
09/08/17	6:00 a	55.9	56.4	55.9	95	54.5	0.0	---	0.00	0.0	---	55.9	56.1	56.1	30.127	0.00	0.00	0.379	0.000	81.7	38	53.6	80.7	1405	1	100.0	60
09/08/17	7:00 a	55.4	55.9	55.4	95	54.0	0.0	---	0.00	0.0	---	55.4	55.6	55.6	30.137	0.00	0.00	0.400	0.000	81.8	38	53.7	80.8	1405	1	100.0	60
09/08/17	8:00 a	56.9	56.9	55.4	96	55.8	0.0	---	0.00	0.0	---	56.9	57.1	57.1	30.146	0.00	0.00	0.337	0.000	81.0	38	53.0	79.8	1405	1	100.0	60
09/08/17	9:00 a	62.9	62.9	56.9	88	59.3	0.0	NW	0.00	6.0	WNW	62.9	63.5	63.5	30.157	0.00	0.00	0.087	0.000	81.6	38	53.5	80.6	1405	1	100.0	60
09/08/17	10:00 a	68.4	68.4	62.9	71	58.6	0.0	NNW	0.00	12.0	WNW	68.4	69.0	69.0	30.170	0.00	0.00	0.000	0.142	80.1	40	53.6	79.1	1405	1	100.0	60
09/08/17	11:00 a	70.4	70.4	68.4	62	56.8	0.0	NW	0.00	10.0	NW	70.4	69.9	69.9	30.171	0.00	0.00	0.000	0.225	79.8	43	55.3	79.2	1405	1	100.0	60
09/08/17	12:00 p	72.2	72.2	70.4	58	56.6	0.0	WNW	0.00	14.0	NW	72.2	72.0	72.0	30.164	0.00	0.00	0.000	0.300	81.4	43	56.8	80.9	1404	1	100.0	60
09/08/17	1:00 p	73.5	73.5	72.2	50	53.7	0.0	NW	0.00	12.0	WNW	73.5	73.1	73.1	30.159	0.00	0.00	0.000	0.354	81.7	37	52.9	80.6	1406	1	100.0	60
09/08/17	2:00 p	74.5	74.6	73.5	41	49.2	0.0	ENE	0.00	15.0	WNW	74.5	73.7	73.7	30.154	0.00	0.00	0.000	0.396	83.8	41	57.6	84.1	1404	1	100.0	60
09/08/17	3:00 p	75.9	75.9	74.5	45	53.0	0.0	WNW	0.00	13.0	W	75.9	75.5	75.5	30.143	0.00	0.00	0.000	0.454	85.6	42	59.9	86.1	1405	1	100.0	60
09/08/17	4:00 p	76.0	76.2	75.9	49	55.5	4.0	WNW	4.00	16.0	NW	76.0	75.9	75.9	30.136	0.00	0.00	0.000	0.458	86.3	32	53.0	85.0	1405	1	100.0	60
09/08/17	5:00 p	75.4	76.1	75.2	53	57.1	4.0	ENE	4.00	18.0	NNE	75.4	75.7	75.7	30.135	0.00	0.00	0.000	0.433	87.5	38	58.8	87.3	1405	1	100.0	60
09/08/17	6:00 p	74.7	75.4	74.7	52	55.9	0.0	NE	0.00	11.0	NW	74.7	74.9	74.9	30.139	0.00	0.00	0.000	0.404	87.9	39	59.8	87.8	1405	1	100.0	60
09/08/17	7:00 p	73.1	74.7	73.1	54	55.5	0.0	NE	0.00	11.0	NNE	73.1	73.0	73.0	30.145	0.00	0.00	0.000	0.337	86.2	30	51.1	84.5	1405	1	100.0	60
09/08/17	8:00 p	70.5	73.1	70.5	61	56.4	0.0	NE	0.00	4.0	NE	70.5	69.9	69.9	30.163	0.00	0.00	0.000	0.229	85.3	37	56.1	84.9	1405	1	100.0	60
09/08/17	9:00 p	67.0	70.5	67.0	70	56.9	0.0	---	0.00	0.0	---	67.0	67.4	67.4	30.170	0.00	0.00	0.000	0.083	87.5	35	56.5	86.5	1405	1	100.0	60
09/08/17	10:00 p	64.3	67.0	64.3	77	56.9	0.0	---	0.00	0.0	---	64.3	64.6	64.6	30.178	0.00	0.00	0.029	0.000	86.7	36	56.6	86.2	1405	1	100.0	60
09/08/17	11:00 p	62.2	64.2	62.2	82	56.6	0.0	---	0.00	0.0	---	62.2	62.5	62.5	30.177	0.00	0.00	0.117	0.000	85.9	36	55.8	85.4	1405	1	100.0	60
09/09/17	12:00 a	60.7	62.2	60.7	87	56.8	0.0	---	0.00	0.0	---	60.7	61.0	61.0	30.178	0.00	0.00	0.179	0.000	85.1	37	55.9	84.7	1406	1	100.0	60

SATURDAY		Temp	Hi	Low	Out	Dew	Wind	Wind	Wind	Hi	Hi	Wind	Heat	THW			Rain	Heat	Cool	In 	In	In 	In 	Wind	Wind	ISS 	Arc.
Date		Time	Out	Temp	Temp	Hum	Pt.	Speed	Dir	Run	Speed	Dir	Chill	Index	Index	Bar  	Rain	Rate	D-D 	D-D 	Temp	Hum	Dew	Heat	Samp	Tx 	Recept	Int.
09/09/17	1:00 a	59.7	60.7	59.7	89	56.5	0.0	---	0.00	0.0	---	59.7	59.9	59.9	30.171	0.00	0.00	0.221	0.000	84.7	37	55.5	84.3	1402	1	100.0	60
09/09/17	2:00 a	58.8	59.7	58.8	91	56.2	0.0	---	0.00	0.0	---	58.8	59.0	59.0	30.168	0.00	0.00	0.258	0.000	84.1	37	55.0	83.8	1405	1	100.0	60
09/09/17	3:00 a	58.0	58.8	58.0	92	55.7	0.0	---	0.00	0.0	---	58.0	58.2	58.2	30.162	0.00	0.00	0.292	0.000	83.4	37	54.4	82.8	1405	1	100.0	60
09/09/17	4:00 a	57.4	58.0	57.4	92	55.1	0.0	---	0.00	0.0	---	57.4	57.6	57.6	30.163	0.00	0.00	0.317	0.000	82.8	37	53.9	81.9	1405	1	100.0	60
09/09/17	5:00 a	56.9	57.4	56.9	93	54.9	0.0	---	0.00	0.0	---	56.9	57.1	57.1	30.177	0.00	0.00	0.337	0.000	82.2	38	54.1	81.3	1405	1	100.0	60
09/09/17	6:00 a	56.7	56.9	56.6	94	55.0	0.0	---	0.00	0.0	---	56.7	56.9	56.9	30.192	0.00	0.00	0.346	0.000	81.6	38	53.5	80.6	1405	1	100.0	60
09/09/17	7:00 a	56.7	56.7	56.6	95	55.3	0.0	---	0.00	0.0	---	56.7	56.9	56.9	30.204	0.00	0.00	0.346	0.000	81.0	38	53.0	79.8	1405	1	100.0	60
09/09/17	8:00 a	58.4	58.4	56.7	98	57.8	0.0	---	0.00	0.0	---	58.4	58.8	58.8	30.220	0.00	0.00	0.275	0.000	80.2	37	51.6	78.9	1405	1	100.0	60
09/09/17	9:00 a	68.1	68.1	58.4	73	59.1	4.0	ENE	4.00	18.0	ENE	68.1	68.9	68.9	30.223	0.00	0.00	0.000	0.129	81.0	37	52.3	79.7	1405	1	100.0	60
09/09/17	10:00 a	70.8	70.8	68.1	69	60.1	4.0	NE	4.00	20.0	NE	70.8	71.0	71.0	30.237	0.00	0.00	0.000	0.242	82.8	37	53.9	81.9	1405	1	100.0	60
09/09/17	11:00 a	72.0	72.1	70.8	63	58.7	5.0	NE	5.00	18.0	E	72.0	72.1	72.1	30.247	0.00	0.00	0.000	0.292	84.4	37	55.3	84.0	1405	1	100.0	60
09/09/17	12:00 p	72.6	72.8	72.0	60	57.9	5.0	NE	5.00	22.0	NE	72.6	72.8	72.8	30.251	0.00	0.00	0.000	0.317	86.2	37	56.9	85.9	1405	1	100.0	60
09/09/17	1:00 p	72.4	72.8	72.2	61	58.2	5.0	NE	5.00	23.0	ENE	72.4	72.6	72.6	30.244	0.00	0.00	0.000	0.308	87.9	34	56.0	86.5	1405	1	100.0	60
09/09/17	2:00 p	72.5	72.7	72.2	59	57.4	6.0	NE	6.00	21.0	ENE	72.5	72.6	72.6	30.232	0.00	0.00	0.000	0.313	88.0	36	57.7	87.1	1404	1	100.0	60
09/09/17	3:00 p	72.3	72.6	72.3	55	55.2	5.0	ENE	5.00	21.0	NE	72.3	72.0	72.0	30.222	0.00	0.00	0.000	0.304	89.7	36	59.2	89.7	1405	1	100.0	60
09/09/17	4:00 p	72.5	72.6	72.2	56	55.9	6.0	NE	6.00	23.0	ENE	72.5	72.3	72.3	30.218	0.00	0.00	0.000	0.313	86.1	36	56.0	85.6	1406	1	100.0	60
09/09/17	5:00 p	71.4	72.5	71.4	59	56.3	5.0	NE	5.00	21.0	ENE	71.4	71.0	71.0	30.224	0.00	0.00	0.000	0.267	87.2	38	58.5	87.1	1404	1	100.0	60
09/09/17	6:00 p	70.6	71.4	70.5	58	55.1	6.0	NE	6.00	24.0	NE	70.6	69.8	69.8	30.226	0.00	0.00	0.000	0.233	86.6	36	56.5	86.1	1406	1	100.0	60
09/09/17	7:00 p	69.1	70.6	69.1	57	53.2	4.0	NE	4.00	19.0	E	69.1	68.2	68.2	30.238	0.00	0.00	0.000	0.171	83.8	35	53.2	83.0	1404	1	100.0	60
09/09/17	8:00 p	67.6	69.1	67.6	59	52.8	4.0	NE	4.00	16.0	NE	67.6	67.1	67.1	30.243	0.00	0.00	0.000	0.108	83.7	37	54.7	83.2	1405	1	100.0	60
09/09/17	9:00 p	66.7	67.6	66.7	61	52.8	0.0	NE	0.00	13.0	ENE	66.7	66.2	66.2	30.252	0.00	0.00	0.000	0.071	82.8	38	54.6	82.1	1405	1	100.0	60
09/09/17	10:00 p	66.7	66.7	66.5	63	53.7	0.0	NE	0.00	10.0	NW	66.7	66.4	66.4	30.258	0.00	0.00	0.000	0.071	81.1	38	53.1	79.9	1405	1	100.0	60
09/09/17	11:00 p	67.1	67.1	66.7	62	53.6	0.0	NE	0.00	13.0	ENE	67.1	66.8	66.8	30.259	0.00	0.00	0.000	0.087	80.4	39	53.2	79.3	1405	1	100.0	60
09/10/17	12:00 a	66.8	67.1	66.8	67	55.5	0.0	NE	0.00	17.0	NE	66.8	66.9	66.9	30.253	0.00	0.00	0.000	0.075	79.8	39	52.6	78.7	1405	1	100.0	60

SUNDAY			Temp	Hi	Low	Out	Dew	Wind	Wind	Wind	Hi	Hi	Wind	Heat	THW			Rain	Heat	Cool	In 	In	In 	In 	Wind	Wind	ISS 	Arc.
Date		Time	Out	Temp	Temp	Hum	Pt.	Speed	Dir	Run	Speed	Dir	Chill	Index	Index	Bar  	Rain	Rate	D-D 	D-D 	Temp	Hum	Dew	Heat	Samp	Tx 	Recept	Int.
09/10/17	1:00 a	66.0	66.8	66.0	66	54.3	0.0	NE	0.00	18.0	ENE	66.0	65.9	65.9	30.251	0.00	0.00	0.000	0.042	79.3	40	52.9	78.4	1404	1	100.0	60
09/10/17	2:00 a	65.3	66.0	65.3	64	52.8	4.0	NE	4.00	16.0	NNE	65.3	64.9	64.9	30.251	0.00	0.00	0.000	0.013	78.7	40	52.3	77.9	1404	1	100.0	60
09/10/17	3:00 a	64.8	65.3	64.8	65	52.8	4.0	NE	4.00	14.0	E	64.8	64.5	64.5	30.241	0.00	0.00	0.008	0.000	78.1	41	52.5	77.3	1405	1	100.0	60
09/10/17	4:00 a	64.0	64.8	63.9	69	53.6	0.0	NE	0.00	15.0	NE	64.0	63.7	63.7	30.251	0.00	0.00	0.042	0.000	77.6	41	52.0	76.8	1406	1	100.0	60
09/10/17	5:00 a	63.2	63.9	63.2	70	53.3	0.0	NE	0.00	14.0	NE	63.2	62.9	62.9	30.249	0.00	0.00	0.075	0.000	77.1	42	52.2	76.4	1404	1	100.0	60
09/10/17	6:00 a	62.1	63.2	62.1	72	53.0	0.0	NE	0.00	17.0	NNE	62.1	61.7	61.7	30.268	0.00	0.00	0.121	0.000	76.6	42	51.8	75.9	1405	1	100.0	60
09/10/17	7:00 a	61.8	62.1	61.7	74	53.4	0.0	NE	0.00	10.0	E	61.8	61.5	61.5	30.292	0.00	0.00	0.133	0.000	81.7	37	52.9	80.6	1405	1	100.0	60
09/10/17	8:00 a	62.9	62.9	61.7	73	54.1	0.0	NE	0.00	18.0	NNE	62.9	62.7	62.7	30.298	0.00	0.00	0.087	0.000	81.3	36	51.8	80.0	1405	1	100.0	60
09/10/17	9:00 a	65.0	65.0	62.9	72	55.8	4.0	NE	4.00	21.0	NE	65.0	65.1	65.1	30.308	0.00	0.00	0.000	0.000	82.6	36	52.9	81.5	1405	1	100.0	60
09/10/17	10:00 a	66.9	67.2	64.9	68	56.0	4.0	NE	4.00	17.0	ENE	66.9	67.1	67.1	30.332	0.00	0.00	0.000	0.079	82.1	37	53.2	81.1	1405	1	100.0	60
09/10/17	11:00 a	67.1	67.3	66.6	68	56.2	4.0	NW	4.00	19.0	NE	67.1	67.4	67.4	30.322	0.00	0.00	0.000	0.087	79.2	41	53.5	78.5	1405	1	100.0	60
09/10/17	12:00 p	68.7	68.7	67.1	66	56.9	4.0	ENE	4.00	20.0	ENE	68.7	68.8	68.8	30.317	0.00	0.00	0.000	0.154	79.8	42	54.7	79.1	1405	1	100.0	60
09/10/17	1:00 p	69.5	69.6	68.7	66	57.6	5.0	NE	5.00	22.0	NE	69.5	69.4	69.4	30.312	0.00	0.00	0.000	0.188	80.6	42	55.4	79.8	1405	1	100.0	60
09/10/17	2:00 p	70.3	70.3	69.4	66	58.4	4.0	NE	4.00	18.0	NE	70.3	70.1	70.1	30.312	0.00	0.00	0.000	0.221	80.1	39	52.9	79.0	1405	1	100.0	60
09/10/17	3:00 p	70.7	70.7	70.3	67	59.2	4.0	ENE	4.00	20.0	ENE	70.7	70.7	70.7	30.308	0.00	0.00	0.000	0.237	81.9	40	55.2	81.2	1405	1	100.0	60
09/10/17	4:00 p	70.9	71.0	70.6	67	59.4	4.0	NE	4.00	19.0	ENE	70.9	71.0	71.0	30.297	0.00	0.00	0.000	0.246	83.8	40	56.9	84.0	1404	1	100.0	60
09/10/17	5:00 p	70.6	71.0	70.6	68	59.5	4.0	NE	4.00	19.0	ENE	70.6	70.7	70.7	30.301	0.00	0.00	0.000	0.233	83.2	38	55.0	82.7	1405	1	100.0	60
09/10/17	6:00 p	69.1	70.6	69.1	72	59.7	4.0	NE	4.00	17.0	ENE	69.1	69.7	69.7	30.293	0.00	0.00	0.000	0.171	83.2	39	55.7	82.8	1405	1	100.0	60
09/10/17	7:00 p	68.9	69.1	68.8	72	59.5	4.0	NE	4.00	17.0	NE	68.9	69.5	69.5	30.285	0.00	0.00	0.000	0.163	80.5	37	51.8	79.2	1405	1	100.0	60
09/10/17	8:00 p	68.6	69.0	68.6	70	58.4	4.0	NE	4.00	22.0	ENE	68.6	69.1	69.1	30.286	0.00	0.00	0.000	0.150	80.8	39	53.5	79.7	1405	1	100.0	60
09/10/17	9:00 p	68.1	68.6	68.1	69	57.5	4.0	NE	4.00	18.0	ENE	68.1	68.6	68.6	30.303	0.00	0.00	0.000	0.129	80.0	39	52.8	78.9	1405	1	100.0	60
09/10/17	10:00 p	67.4	68.1	67.4	72	58.1	0.0	ENE	0.00	15.0	N	67.4	68.0	68.0	30.279	0.00	0.00	0.000	0.100	79.5	40	53.1	78.6	1405	1	100.0	60
09/10/17	11:00 p	67.1	67.5	67.1	75	58.9	0.0	NE	0.00	10.0	ENE	67.1	67.8	67.8	30.278	0.00	0.00	0.000	0.087	79.1	41	53.4	78.4	1405	1	100.0	60
09/11/17	12:00 a	67.1	67.2	67.0	73	58.2	0.0	NE	0.00	16.0	NE	67.1	67.7	67.7	30.275	0.00	0.00	0.000	0.087	78.7	41	53.0	78.0	1405	1	100.0	60

MONDAY			Temp	Hi	Low	Out	Dew	Wind	Wind	Wind	Hi	Hi	Wind	Heat	THW			Rain	Heat	Cool	In 	In	In 	In 	Wind	Wind	ISS 	Arc.
Date		Time	Out	Temp	Temp	Hum	Pt.	Speed	Dir	Run	Speed	Dir	Chill	Index	Index	Bar  	Rain	Rate	D-D 	D-D 	Temp	Hum	Dew	Heat	Samp	Tx 	Recept	Int.
09/11/17	1:00 a	67.1	67.4	67.0	71	57.4	0.0	NE	0.00	11.0	NE	67.1	67.6	67.6	30.273	0.00	0.00	0.000	0.087	77.6	40	51.4	76.7	1404	1	100.0	60
09/11/17	2:00 a	66.6	67.1	66.6	72	57.3	0.0	NE	0.00	12.0	NE	66.6	67.0	67.0	30.256	0.00	0.00	0.000	0.067	77.5	41	51.9	76.7	1405	1	100.0	60
09/11/17	3:00 a	65.4	66.6	65.4	75	57.3	0.0	NE	0.00	17.0	ENE	65.4	65.8	65.8	30.267	0.00	0.00	0.000	0.017	77.2	42	52.3	76.5	1405	1	100.0	60
09/11/17	4:00 a	63.1	65.3	63.1	80	56.8	0.0	---	0.00	0.0	---	63.1	63.4	63.4	30.260	0.00	0.00	0.079	0.000	76.8	42	52.0	76.1	1404	1	100.0	60
09/11/17	5:00 a	60.9	63.1	60.9	84	56.0	0.0	---	0.00	0.0	---	60.9	61.1	61.1	30.257	0.00	0.00	0.171	0.000	76.4	43	52.2	75.8	1405	1	100.0	60
09/11/17	6:00 a	60.0	60.9	59.9	86	55.8	0.0	---	0.00	0.0	---	60.0	60.1	60.1	30.242	0.00	0.00	0.208	0.000	75.9	43	51.8	75.3	1405	1	100.0	60
09/11/17	7:00 a	62.3	62.3	60.0	83	57.1	0.0	---	0.00	0.0	---	62.3	62.6	62.6	30.242	0.00	0.00	0.113	0.000	79.5	40	53.1	78.6	1405	1	100.0	60
09/11/17	8:00 a	66.3	66.3	62.3	76	58.5	0.0	ENE	0.00	12.0	ENE	66.3	66.9	66.9	30.229	0.00	0.00	0.000	0.054	81.1	38	53.1	79.9	1405	1	100.0	60
09/11/17	9:00 a	69.2	69.2	66.3	68	58.2	4.0	NE	4.00	20.0	N	69.2	69.3	69.3	30.212	0.00	0.00	0.000	0.175	82.1	37	53.2	81.1	1405	1	100.0	60
09/11/17	10:00 a	70.8	70.8	69.2	66	58.9	5.0	NE	5.00	23.0	NE	70.8	70.8	70.8	30.205	0.00	0.00	0.000	0.242	82.8	38	54.6	82.1	1405	1	100.0	60
09/11/17	11:00 a	72.5	72.5	70.8	64	59.6	5.0	NE	5.00	24.0	NE	72.5	72.9	72.9	30.206	0.00	0.00	0.000	0.313	83.9	39	56.3	83.9	1405	1	100.0	60
09/11/17	12:00 p	73.0	73.0	72.3	66	61.0	5.0	NE	5.00	22.0	NE	73.0	73.8	73.8	30.197	0.00	0.00	0.000	0.333	84.6	36	54.7	84.0	1405	1	100.0	60
09/11/17	1:00 p	73.3	73.3	73.0	66	61.3	4.0	NE	4.00	21.0	NE	73.3	74.2	74.2	30.202	0.00	0.00	0.000	0.346	85.1	37	55.9	84.7	1405	1	100.0	60
09/11/17	2:00 p	73.9	73.9	73.0	63	60.5	4.0	NE	4.00	19.0	ENE	73.9	74.9	74.9	30.193	0.00	0.00	0.000	0.371	85.9	38	57.3	85.7	1405	1	100.0	60
09/11/17	3:00 p	72.5	73.9	72.5	69	61.7	4.0	NE	4.00	20.0	NNE	72.5	73.3	73.3	30.152	0.00	0.00	0.000	0.313	86.5	38	57.9	86.4	1405	1	100.0	60
09/11/17	4:00 p	72.3	72.9	72.2	69	61.6	4.0	NE	4.00	19.0	E	72.3	73.0	73.0	30.123	0.00	0.00	0.000	0.304	85.9	36	55.8	85.4	1405	1	100.0	60
09/11/17	5:00 p	71.3	72.3	71.3	70	61.0	5.0	NE	5.00	25.0	NE	71.3	71.8	71.8	30.090	0.00	0.00	0.000	0.263	86.1	37	56.8	85.8	1405	1	100.0	60
09/11/17	6:00 p	70.7	71.2	70.7	73	61.6	4.0	NE	4.00	22.0	NE	70.7	71.3	71.3	30.112	0.00	0.00	0.000	0.237	86.0	37	56.7	85.7	1405	1	100.0	60
09/11/17	7:00 p	70.0	70.7	70.0	76	62.1	0.0	NE	0.00	15.0	ENE	70.0	70.7	70.7	30.121	0.00	0.00	0.000	0.208	85.9	37	56.6	85.6	1405	1	100.0	60
09/11/17	8:00 p	69.7	70.0	69.6	75	61.4	0.0	NE	0.00	16.0	E	69.7	70.4	70.4	30.113	0.00	0.00	0.000	0.196	84.7	38	56.3	84.5	1404	1	100.0	60
09/11/17	9:00 p	69.5	69.7	69.4	77	62.0	0.0	NE	0.00	16.0	ENE	69.5	70.5	70.5	30.079	0.00	0.00	0.000	0.188	83.0	38	54.8	82.3	1405	1	100.0	60
09/11/17	10:00 p	69.5	69.5	69.4	78	62.3	0.0	NE	0.00	18.0	ENE	69.5	70.6	70.6	30.079	0.00	0.00	0.000	0.188	83.1	39	55.6	82.7	1405	1	100.0	60
09/11/17	11:00 p	69.4	69.5	69.4	78	62.2	0.0	NE	0.00	11.0	NE	69.4	70.5	70.5	30.080	0.00	0.00	0.000	0.183	83.0	40	56.2	82.7	1405	1	100.0	60
09/12/17	12:00 a	69.3	69.4	69.3	78	62.1	0.0	NE	0.00	12.0	NE	69.3	70.5	70.5	30.060	0.00	0.00	0.000	0.179	82.9	40	56.1	82.6	1405	1	100.0	60

TUESDAY			Temp	Hi	Low	Out	Dew	Wind	Wind	Wind	Hi	Hi	Wind	Heat	THW			Rain	Heat	Cool	In 	In	In 	In 	Wind	Wind	ISS 	Arc.
Date		Time	Out	Temp	Temp	Hum	Pt.	Speed	Dir	Run	Speed	Dir	Chill	Index	Index	Bar  	Rain	Rate	D-D 	D-D 	Temp	Hum	Dew	Heat	Samp	Tx 	Recept	Int.
09/12/17	1:00 a	69.0	69.4	69.0	80	62.6	0.0	NE	0.00	12.0	NE	69.0	70.5	70.5	30.051	0.00	0.00	0.000	0.167	82.7	40	55.9	82.3	1404	1	100.0	60
09/12/17	2:00 a	68.6	69.1	68.6	83	63.2	0.0	NE	0.00	12.0	NE	68.6	70.2	70.2	30.033	0.00	0.00	0.000	0.150	82.4	40	55.7	81.9	1405	1	100.0	60
09/12/17	3:00 a	68.7	68.7	68.5	81	62.6	0.0	NE	0.00	11.0	NE	68.7	70.2	70.2	30.002	0.00	0.00	0.000	0.154	82.3	40	55.6	81.7	1405	1	100.0	60
09/12/17	4:00 a	68.9	68.9	68.7	82	63.2	0.0	NE	0.00	15.0	ENE	68.9	70.5	70.5	29.999	0.00	0.00	0.000	0.163	82.0	40	55.3	81.3	1405	1	100.0	60
09/12/17	5:00 a	68.9	68.9	68.8	82	63.2	0.0	NE	0.00	11.0	NE	68.9	70.5	70.5	30.006	0.00	0.00	0.000	0.163	81.8	41	55.8	81.2	1405	1	100.0	60
09/12/17	6:00 a	68.9	69.0	68.8	83	63.5	0.0	NE	0.00	13.0	NNE	68.9	70.6	70.6	29.991	0.00	0.00	0.000	0.163	81.8	41	55.8	81.2	1405	1	100.0	60
09/12/17	7:00 a	68.6	68.9	68.5	84	63.6	0.0	NE	0.00	11.0	NE	68.6	70.2	70.2	29.982	0.00	0.00	0.000	0.150	82.8	40	56.0	82.4	1404	1	100.0	60
09/12/17	8:00 a	69.5	69.5	68.6	84	64.5	0.0	NE	0.00	10.0	N	69.5	71.1	71.1	29.990	0.00	0.00	0.000	0.188	82.6	41	56.5	82.3	1405	1	100.0	60
09/12/17	9:00 a	70.7	70.7	69.5	85	66.0	0.0	NE	0.00	11.0	NNE	70.7	72.4	72.4	29.995	0.00	0.00	0.000	0.237	82.7	37	53.8	81.8	1405	1	100.0	60
09/12/17	10:00 a	72.7	72.7	70.7	84	67.6	0.0	ENE	0.00	10.0	NE	72.7	74.6	74.6	29.997	0.00	0.00	0.000	0.321	81.6	36	52.1	80.3	1405	1	100.0	60
09/12/17	11:00 a	74.5	74.5	72.7	82	68.6	0.0	NE	0.00	11.0	SSE	74.5	76.9	76.9	29.985	0.00	0.00	0.000	0.396	82.7	38	54.5	82.0	1405	1	100.0	60
09/12/17	12:00 p	74.8	75.1	74.5	82	68.9	0.0	NE	0.00	15.0	NE	74.8	77.4	77.4	29.965	0.00	0.00	0.000	0.408	83.8	39	56.2	83.8	1405	1	100.0	60
09/12/17	1:00 p	76.2	76.2	74.8	78	68.8	0.0	NE	0.00	14.0	NNE	76.2	78.9	78.9	29.941	0.00	0.00	0.000	0.467	84.7	39	57.0	84.7	1405	1	100.0	60
09/12/17	2:00 p	77.5	77.5	76.2	77	69.7	0.0	NE	0.00	13.0	ESE	77.5	80.3	80.3	29.950	0.00	0.00	0.000	0.521	84.8	37	55.6	84.4	1405	1	100.0	60
09/12/17	3:00 p	76.9	77.7	76.9	77	69.1	0.0	NNE	0.00	7.0	SSE	76.9	79.6	79.6	29.928	0.00	0.00	0.000	0.496	85.7	38	57.2	85.5	1405	1	100.0	60
09/12/17	4:00 p	76.5	76.9	76.4	80	69.9	0.0	NE	0.00	14.0	NE	76.5	79.5	79.5	29.923	0.00	0.00	0.000	0.479	86.2	34	54.5	85.3	1405	1	100.0	60
09/12/17	5:00 p	76.2	76.8	76.2	80	69.6	0.0	NE	0.00	11.0	NE	76.2	79.1	79.1	29.917	0.00	0.00	0.000	0.467	86.1	36	56.0	85.6	1405	1	100.0	60
09/12/17	6:00 p	75.7	76.2	75.7	82	69.8	0.0	NE	0.00	10.0	ENE	75.7	78.6	78.6	29.908	0.00	0.00	0.000	0.446	86.5	38	57.9	86.4	1405	1	100.0	60
09/12/17	7:00 p	74.6	75.7	74.6	82	68.7	0.0	ENE	0.00	11.0	S	74.6	77.1	77.1	29.901	0.00	0.00	0.000	0.400	86.7	38	58.1	86.6	1405	1	100.0	60
09/12/17	8:00 p	73.6	74.6	73.6	85	68.8	0.0	NE	0.00	10.0	S	73.6	75.8	75.8	29.909	0.00	0.00	0.000	0.358	86.0	36	55.9	85.5	1405	1	100.0	60
09/12/17	9:00 p	72.8	73.6	72.8	88	69.0	0.0	ESE	0.00	5.0	SE	72.8	75.1	75.1	29.910	0.00	0.00	0.000	0.325	86.0	37	56.7	85.7	1405	1	100.0	60
09/12/17	10:00 p	72.2	72.8	72.2	90	69.1	0.0	---	0.00	0.0	---	72.2	74.5	74.5	29.904	0.00	0.00	0.000	0.300	84.5	33	52.2	83.4	1404	1	100.0	60
09/12/17	11:00 p	72.3	72.3	72.2	91	69.5	0.0	SSE	0.00	4.0	SSE	72.3	74.7	74.7	29.892	0.00	0.00	0.000	0.304	84.6	36	54.7	84.0	1405	1	100.0	60
09/13/17	12:00 a	72.6	72.6	72.3	92	70.1	0.0	SE	0.00	5.0	S	72.6	75.1	75.1	29.887	0.00	0.00	0.000	0.317	84.7	36	54.8	84.1	1405	1	100.0	60

WEDNESDAY		Temp	Hi	Low	Out	Dew	Wind	Wind	Wind	Hi	Hi	Wind	Heat	THW			Rain	Heat	Cool	In 	In	In 	In 	Wind	Wind	ISS 	Arc.
Date		Time	Out	Temp	Temp	Hum	Pt.	Speed	Dir	Run	Speed	Dir	Chill	Index	Index	Bar  	Rain	Rate	D-D 	D-D 	Temp	Hum	Dew	Heat	Samp	Tx 	Recept	Int.
09/13/17	1:00 a	72.9	72.9	72.6	93	70.8	0.0	SE	0.00	4.0	SE	72.9	75.6	75.6	29.874	0.00	0.00	0.000	0.329	84.8	37	55.6	84.4	1404	1	100.0	60
09/13/17	2:00 a	73.4	73.4	72.9	93	71.3	0.0	SSE	0.00	6.0	SE	73.4	76.1	76.1	29.872	0.00	0.00	0.000	0.350	84.7	37	55.5	84.3	1405	1	100.0	60
09/13/17	3:00 a	73.6	73.6	73.4	94	71.8	0.0	SSE	0.00	4.0	SSE	73.6	76.4	76.4	29.862	0.00	0.00	0.000	0.358	84.7	36	54.8	84.1	1405	1	100.0	60
09/13/17	4:00 a	73.6	73.7	73.6	95	72.1	0.0	---	0.00	0.0	---	73.6	76.5	76.5	29.857	0.00	0.00	0.000	0.358	84.0	36	54.2	83.5	1405	1	100.0	60
09/13/17	5:00 a	73.6	73.7	73.6	95	72.1	0.0	---	0.00	0.0	---	73.6	76.5	76.5	29.859	0.00	0.00	0.000	0.358	84.1	37	55.0	83.8	1405	1	100.0	60
09/13/17	6:00 a	73.5	73.6	73.5	96	72.3	0.0	---	0.00	0.0	---	73.5	76.5	76.5	29.874	0.00	0.00	0.000	0.354	84.1	37	55.0	83.8	1405	1	100.0	60
09/13/17	7:00 a	73.0	73.5	73.0	96	71.8	0.0	---	0.00	0.0	---	73.0	76.0	76.0	29.887	0.00	0.00	0.000	0.333	84.6	37	55.5	84.2	1405	1	100.0	60
09/13/17	8:00 a	72.8	73.0	72.7	96	71.6	0.0	---	0.00	0.0	---	72.8	75.8	75.8	29.903	0.00	0.00	0.000	0.325	84.5	38	56.1	84.3	1405	1	100.0	60
09/13/17	9:00 a	74.0	74.0	72.7	94	72.2	0.0	S	0.00	6.0	SSW	74.0	76.9	76.9	29.912	0.00	0.00	0.000	0.375	83.1	36	53.4	82.1	1405	1	100.0	60
09/13/17	10:00 a	76.1	76.1	74.0	89	72.6	0.0	S	0.00	4.0	SSW	76.1	79.6	79.6	29.917	0.00	0.00	0.000	0.462	82.5	38	54.3	81.7	1404	1	100.0	60
09/13/17	11:00 a	78.4	78.4	76.1	85	73.5	0.0	SW	0.00	7.0	SW	78.4	82.7	82.7	29.918	0.00	0.00	0.000	0.558	81.9	42	56.6	81.4	1405	1	100.0	60
09/13/17	12:00 p	81.4	81.4	78.4	77	73.5	0.0	WNW	0.00	7.0	SSW	81.4	86.7	86.7	29.907	0.00	0.00	0.000	0.683	82.2	39	54.8	81.4	1406	1	100.0	60
09/13/17	1:00 p	82.5	82.7	81.4	72	72.6	0.0	SSW	0.00	15.0	SSW	82.5	87.9	87.9	29.899	0.00	0.00	0.000	0.729	83.8	43	58.9	84.5	1404	1	100.0	60
09/13/17	2:00 p	84.5	84.5	82.5	66	71.9	0.0	SSW	0.00	15.0	SSW	84.5	90.5	90.5	29.880	0.00	0.00	0.000	0.813	84.8	32	51.7	83.4	1405	1	100.0	60
09/13/17	3:00 p	85.0	85.0	84.5	64	71.5	0.0	SSW	0.00	12.0	SW	85.0	90.8	90.8	29.864	0.00	0.00	0.000	0.833	87.0	42	61.1	87.9	1405	1	100.0	60
09/13/17	4:00 p	85.0	85.1	85.0	60	69.6	0.0	W	0.00	13.0	SW	85.0	89.4	89.4	29.855	0.00	0.00	0.000	0.833	88.9	29	52.5	86.7	1405	1	100.0	60
09/13/17	5:00 p	84.6	85.1	84.6	60	69.2	0.0	SW	0.00	10.0	WSW	84.6	88.7	88.7	29.854	0.00	0.00	0.000	0.817	89.6	40	62.1	90.7	1405	1	100.0	60
09/13/17	6:00 p	83.7	84.6	83.7	60	68.3	0.0	SSW	0.00	4.0	WSW	83.7	87.1	87.1	29.855	0.00	0.00	0.000	0.779	89.8	28	52.3	88.0	1405	1	100.0	60
09/13/17	7:00 p	81.2	83.7	81.2	66	68.8	0.0	SSW	0.00	5.0	W	81.2	84.0	84.0	29.864	0.00	0.00	0.000	0.675	91.7	34	59.3	92.0	1405	1	100.0	60
09/13/17	8:00 p	78.2	81.2	78.2	71	68.0	0.0	S	0.00	4.0	S	78.2	80.4	80.4	29.876	0.00	0.00	0.000	0.550	91.6	35	60.1	92.0	1405	1	100.0	60
09/13/17	9:00 p	75.8	78.3	75.8	77	68.1	0.0	WNW	0.00	4.0	NW	75.8	78.3	78.3	29.891	0.00	0.00	0.000	0.450	89.6	34	57.5	89.0	1405	1	100.0	60
09/13/17	10:00 p	74.0	75.8	74.0	82	68.2	0.0	WSW	0.00	4.0	WSW	74.0	76.1	76.1	29.892	0.00	0.00	0.000	0.375	89.3	34	57.3	88.5	1405	1	100.0	60
09/13/17	11:00 p	72.7	74.0	72.7	84	67.6	0.0	WSW	0.00	4.0	W	72.7	74.6	74.6	29.896	0.00	0.00	0.000	0.321	89.1	35	57.9	88.5	1405	1	100.0	60
09/14/17	12:00 a	71.6	72.7	71.6	86	67.2	0.0	---	0.00	0.0	---	71.6	73.5	73.5	29.902	0.00	0.00	0.000	0.275	88.8	35	57.6	88.0	1405	1	100.0	60

THURSDAY		Temp	Hi	Low	Out	Dew	Wind	Wind	Wind	Hi	Hi	Wind	Heat	THW			Rain	Heat	Cool	In 	In	In 	In 	Wind	Wind	ISS 	Arc.
Date		Time	Out	Temp	Temp	Hum	Pt.	Speed	Dir	Run	Speed	Dir	Chill	Index	Index	Bar  	Rain	Rate	D-D 	D-D 	Temp	Hum	Dew	Heat	Samp	Tx 	Recept	Int.
09/14/17	1:00 a	70.8	71.6	70.8	88	67.1	0.0	E	0.00	4.0	E	70.8	72.8	72.8	29.904	0.00	0.00	0.000	0.242	86.0	32	52.7	84.7	1403	1	100.0	60
09/14/17	2:00 a	69.9	70.8	69.9	91	67.2	0.0	---	0.00	0.0	---	69.9	72.0	72.0	29.901	0.00	0.00	0.000	0.204	86.2	34	54.5	85.3	1405	1	100.0	60
09/14/17	3:00 a	69.5	70.0	69.5	94	67.7	0.0	WSW	0.00	12.0	WSW	69.5	71.8	71.8	29.893	0.00	0.00	0.000	0.188	85.8	35	55.0	85.1	1405	1	100.0	60
09/14/17	4:00 a	69.0	69.5	69.0	94	67.2	0.0	---	0.00	0.0	---	69.0	71.2	71.2	29.897	0.00	0.00	0.000	0.167	85.3	36	55.3	84.7	1405	1	100.0	60
09/14/17	5:00 a	68.3	69.0	68.3	95	66.8	0.0	SSW	0.00	5.0	SSW	68.3	70.3	70.3	29.907	0.00	0.00	0.000	0.138	85.0	36	55.1	84.4	1405	1	100.0	60
09/14/17	6:00 a	68.0	68.3	68.0	96	66.8	0.0	---	0.00	0.0	---	68.0	69.9	69.9	29.920	0.00	0.00	0.000	0.125	83.5	35	53.0	82.6	1405	1	100.0	60
09/14/17	7:00 a	67.9	68.0	67.9	97	67.0	0.0	---	0.00	0.0	---	67.9	69.8	69.8	29.935	0.00	0.00	0.000	0.121	83.3	36	53.6	82.4	1405	1	100.0	60
09/14/17	8:00 a	69.2	69.2	67.9	98	68.6	0.0	---	0.00	0.0	---	69.2	71.9	71.9	29.938	0.00	0.00	0.000	0.175	83.2	37	54.2	82.5	1405	1	100.0	60
09/14/17	9:00 a	71.7	71.7	69.2	97	70.8	0.0	SSW	0.00	12.0	SSW	71.7	74.8	74.8	29.952	0.00	0.00	0.000	0.279	85.1	37	55.9	84.7	1405	1	100.0	60
09/14/17	10:00 a	76.5	76.5	71.7	89	73.0	0.0	SW	0.00	7.0	WSW	76.5	80.2	80.2	29.958	0.00	0.00	0.000	0.479	81.3	40	54.7	80.4	1405	1	100.0	60
09/14/17	11:00 a	80.1	80.1	76.5	83	74.5	0.0	SSW	0.00	11.0	SSW	80.1	85.4	85.4	29.948	0.00	0.00	0.000	0.629	82.4	41	56.3	82.0	1405	1	100.0	60
09/14/17	12:00 p	82.2	82.2	80.1	77	74.3	0.0	SSW	0.00	6.0	SSW	82.2	88.6	88.6	29.928	0.00	0.00	0.000	0.717	82.4	33	50.4	80.9	1405	1	100.0	60
09/14/17	1:00 p	78.2	83.2	78.2	89	74.7	4.0	W	4.00	23.0	SW	78.2	83.0	83.0	29.925	0.31	8.23	0.000	0.550	83.8	41	57.6	84.1	1405	1	100.0	60
09/14/17	2:00 p	79.4	79.4	77.9	89	75.9	0.0	SW	0.00	14.0	S	79.4	85.3	85.3	29.914	0.00	0.00	0.000	0.600	84.6	34	53.1	83.6	1404	1	100.0	60
09/14/17	3:00 p	80.8	80.8	79.5	80	74.0	0.0	SSW	0.00	10.0	SSW	80.8	86.1	86.1	29.904	0.00	0.00	0.000	0.658	85.0	39	57.3	84.9	1405	1	100.0	60
09/14/17	4:00 p	81.6	81.7	80.8	75	72.9	0.0	SSE	0.00	10.0	SW	81.6	86.7	86.7	29.896	0.00	0.00	0.000	0.692	86.3	41	59.8	86.8	1405	1	100.0	60
09/14/17	5:00 p	80.7	81.6	80.7	78	73.2	0.0	S	0.00	6.0	WSW	80.7	85.5	85.5	29.899	0.00	0.00	0.000	0.654	85.3	32	52.1	83.9	1405	1	100.0	60
09/14/17	6:00 p	79.7	80.8	79.7	76	71.5	0.0	SW	0.00	5.0	WSW	79.7	83.3	83.3	29.912	0.00	0.00	0.000	0.612	86.1	38	57.5	85.9	1405	1	100.0	60
09/14/17	7:00 p	78.5	79.7	78.5	78	71.1	0.0	SSW	0.00	4.0	SW	78.5	81.8	81.8	29.917	0.00	0.00	0.000	0.563	86.2	39	58.3	86.2	1405	1	100.0	60
09/14/17	8:00 p	76.7	78.5	76.7	81	70.4	0.0	SW	0.00	4.0	SSW	76.7	79.8	79.8	29.933	0.00	0.00	0.000	0.487	88.3	34	56.4	87.0	1405	1	100.0	60
09/14/17	9:00 p	74.4	76.7	74.4	86	69.9	0.0	SW	0.00	4.0	SW	74.4	77.0	77.0	29.945	0.00	0.00	0.000	0.392	88.6	34	56.6	87.5	1405	1	100.0	60
09/14/17	10:00 p	72.9	74.4	72.9	92	70.4	0.0	---	0.00	0.0	---	72.9	75.5	75.5	29.957	0.00	0.00	0.000	0.329	88.1	33	55.4	86.5	1405	1	100.0	60
09/14/17	11:00 p	72.0	72.9	72.0	94	70.2	0.0	---	0.00	0.0	---	72.0	74.7	74.7	29.962	0.00	0.00	0.000	0.292	86.7	33	54.2	85.5	1405	1	100.0	60
09/15/17	12:00 a	72.1	72.1	71.9	96	70.9	0.0	---	0.00	0.0	---	72.1	75.1	75.1	29.971	0.00	0.00	0.000	0.296	86.4	34	54.7	85.5	1405	1	100.0	60

FRIDAY			Temp	Hi	Low	Out	Dew	Wind	Wind	Wind	Hi	Hi	Wind	Heat	THW			Rain	Heat	Cool	In 	In	In 	In 	Wind	Wind	ISS 	Arc.
Date		Time	Out	Temp	Temp	Hum	Pt.	Speed	Dir	Run	Speed	Dir	Chill	Index	Index	Bar  	Rain	Rate	D-D 	D-D 	Temp	Hum	Dew	Heat	Samp	Tx 	Recept	Int.
09/15/17	1:00 a	72.1	72.2	72.1	96	70.9	0.0	---	0.00	0.0	---	72.1	75.1	75.1	29.970	0.00	0.00	0.000	0.296	86.6	34	54.9	85.6	1404	1	100.0	60
09/15/17	2:00 a	72.1	72.2	72.0	97	71.2	0.0	---	0.00	0.0	---	72.1	75.2	75.2	29.962	0.00	0.00	0.000	0.296	85.4	33	53.0	84.2	1404	1	100.0	60
09/15/17	3:00 a	72.2	72.2	72.0	97	71.3	0.0	---	0.00	0.0	---	72.2	75.3	75.3	29.957	0.00	0.00	0.000	0.300	84.5	34	53.0	83.6	1405	1	100.0	60
09/15/17	4:00 a	72.2	72.3	72.2	97	71.3	0.0	---	0.00	0.0	---	72.2	75.3	75.3	29.962	0.00	0.00	0.000	0.300	84.4	35	53.8	83.7	1406	1	100.0	60
09/15/17	5:00 a	71.7	72.2	71.7	97	70.8	0.0	---	0.00	0.0	---	71.7	74.8	74.8	29.964	0.00	0.00	0.000	0.279	84.4	36	54.5	83.9	1404	1	100.0	60
09/15/17	6:00 a	70.5	71.7	70.5	97	69.6	0.0	---	0.00	0.0	---	70.5	73.5	73.5	29.974	0.00	0.00	0.000	0.229	85.3	35	54.5	84.5	1405	1	100.0	60
09/15/17	7:00 a	71.4	71.4	70.5	98	70.8	0.0	---	0.00	0.0	---	71.4	74.7	74.7	30.004	0.00	0.00	0.000	0.267	85.4	35	54.6	84.6	1405	1	100.0	60
09/15/17	8:00 a	71.5	71.5	71.3	98	70.9	0.0	---	0.00	0.0	---	71.5	74.8	74.8	30.023	0.00	0.00	0.000	0.271	84.1	34	52.7	83.2	1405	1	100.0	60
09/15/17	9:00 a	72.3	72.3	71.5	98	71.7	0.0	---	0.00	0.0	---	72.3	75.6	75.6	30.035	0.00	0.00	0.000	0.304	85.7	35	54.9	85.0	1405	1	100.0	60
09/15/17	10:00 a	75.7	75.7	72.3	88	71.9	0.0	NNE	0.00	4.0	ENE	75.7	79.0	79.0	30.048	0.00	0.00	0.000	0.446	82.2	37	53.3	81.2	1405	1	100.0	60
09/15/17	11:00 a	79.8	79.8	75.8	80	73.1	0.0	E	0.00	5.0	E	79.8	84.2	84.2	30.051	0.00	0.00	0.000	0.617	83.3	39	55.8	83.0	1405	1	100.0	60
09/15/17	12:00 p	81.6	81.6	79.8	71	71.3	0.0	ENE	0.00	6.0	NNW	81.6	85.8	85.8	30.045	0.00	0.00	0.000	0.692	83.4	38	55.1	83.0	1405	1	100.0	60
09/15/17	1:00 p	82.3	83.1	81.7	68	70.7	0.0	ENE	0.00	4.0	WNW	82.3	86.4	86.4	30.033	0.00	0.00	0.000	0.721	84.7	40	57.7	84.9	1405	1	100.0	60
09/15/17	2:00 p	82.9	82.9	82.0	69	71.7	0.0	E	0.00	4.0	E	82.9	87.9	87.9	30.021	0.00	0.00	0.000	0.746	85.5	39	57.7	85.5	1405	1	100.0	60
09/15/17	3:00 p	82.2	82.9	82.2	68	70.6	0.0	ENE	0.00	6.0	ENE	82.2	86.2	86.2	30.014	0.00	0.00	0.000	0.717	85.0	39	57.3	84.9	1405	1	100.0	60
09/15/17	4:00 p	82.9	82.9	82.1	69	71.7	0.0	NE	0.00	4.0	NE	82.9	87.9	87.9	30.008	0.00	0.00	0.000	0.746	86.4	40	59.2	86.7	1405	1	100.0	60
09/15/17	5:00 p	81.6	83.1	81.6	69	70.4	0.0	ENE	0.00	6.0	NNW	81.6	85.3	85.3	30.014	0.00	0.00	0.000	0.692	84.6	38	56.2	84.4	1404	1	100.0	60
09/15/17	6:00 p	81.4	81.8	81.4	73	71.9	0.0	ENE	0.00	7.0	ENE	81.4	85.8	85.8	30.031	0.00	0.00	0.000	0.683	85.9	39	58.1	85.9	1405	1	100.0	60
09/15/17	7:00 p	79.4	81.4	79.4	75	70.8	0.0	NE	0.00	7.0	NE	79.4	82.6	82.6	30.037	0.00	0.00	0.000	0.600	84.2	37	55.1	83.9	1405	1	100.0	60
09/15/17	8:00 p	77.4	79.4	77.4	80	70.7	0.0	---	0.00	0.0	---	77.4	80.6	80.6	30.047	0.00	0.00	0.000	0.517	84.7	38	56.3	84.5	1405	1	100.0	60
09/15/17	9:00 p	76.0	77.4	76.0	84	70.8	0.0	---	0.00	0.0	---	76.0	79.1	79.1	30.063	0.00	0.00	0.000	0.458	83.3	37	54.3	82.6	1405	1	100.0	60
09/15/17	10:00 p	75.4	76.0	75.4	87	71.3	0.0	---	0.00	0.0	---	75.4	78.6	78.6	30.060	0.00	0.00	0.000	0.433	82.6	37	53.7	81.7	1405	1	100.0	60
09/15/17	11:00 p	74.3	75.4	74.3	90	71.2	0.0	---	0.00	0.0	---	74.3	77.0	77.0	30.073	0.00	0.00	0.000	0.388	82.5	38	54.3	81.7	1405	1	100.0	60
09/16/17	12:00 a	73.3	74.3	73.3	92	70.8	0.0	---	0.00	0.0	---	73.3	75.9	75.9	30.080	0.00	0.00	0.000	0.346	82.4	37	53.5	81.4	1405	1	100.0	60

SATURDAY		Temp	Hi	Low	Out	Dew	Wind	Wind	Wind	Hi	Hi	Wind	Heat	THW			Rain	Heat	Cool	In 	In	In 	In 	Wind	Wind	ISS 	Arc.
Date		Time	Out	Temp	Temp	Hum	Pt.	Speed	Dir	Run	Speed	Dir	Chill	Index	Index	Bar  	Rain	Rate	D-D 	D-D 	Temp	Hum	Dew	Heat	Samp	Tx 	Recept	Int.
09/16/17	1:00 a	73.0	73.3	73.0	94	71.2	0.0	---	0.00	0.0	---	73.0	75.7	75.7	30.077	0.00	0.00	0.000	0.333	81.2	37	52.4	79.9	1404	1	100.0	60
09/16/17	2:00 a	72.3	73.1	72.3	94	70.5	0.0	---	0.00	0.0	---	72.3	75.0	75.0	30.078	0.00	0.00	0.000	0.304	81.1	38	53.1	79.9	1405	1	100.0	60
09/16/17	3:00 a	71.9	72.4	71.9	95	70.4	0.0	---	0.00	0.0	---	71.9	74.7	74.7	30.069	0.00	0.00	0.000	0.288	81.0	39	53.7	79.9	1405	1	100.0	60
09/16/17	4:00 a	71.0	71.9	71.0	95	69.5	0.0	---	0.00	0.0	---	71.0	73.7	73.7	30.064	0.00	0.00	0.000	0.250	80.7	39	53.4	79.6	1405	1	100.0	60
09/16/17	5:00 a	70.1	71.0	70.1	96	68.9	0.0	---	0.00	0.0	---	70.1	72.8	72.8	30.067	0.00	0.00	0.000	0.212	80.3	40	53.8	79.3	1405	1	100.0	60
09/16/17	6:00 a	69.4	70.1	69.4	96	68.2	0.0	---	0.00	0.0	---	69.4	71.9	71.9	30.074	0.00	0.00	0.000	0.183	79.1	38	51.3	78.1	1404	1	100.0	60
09/16/17	7:00 a	69.6	69.6	69.4	97	68.7	0.0	---	0.00	0.0	---	69.6	72.4	72.4	30.082	0.00	0.00	0.000	0.192	79.0	40	52.6	78.2	1406	1	100.0	60
09/16/17	8:00 a	71.1	71.1	69.6	99	70.8	0.0	---	0.00	0.0	---	71.1	74.6	74.6	30.096	0.00	0.00	0.000	0.254	82.6	35	52.2	81.4	1404	1	100.0	60
09/16/17	9:00 a	74.6	74.6	71.1	97	73.7	0.0	---	0.00	0.0	---	74.6	78.1	78.1	30.106	0.00	0.00	0.000	0.400	84.3	35	53.7	83.6	1405	1	100.0	60
09/16/17	10:00 a	78.3	78.3	74.6	84	73.1	0.0	NE	0.00	11.0	NE	78.3	82.4	82.4	30.114	0.00	0.00	0.000	0.554	85.2	36	55.2	84.6	1405	1	100.0	60
09/16/17	11:00 a	79.9	79.9	78.3	76	71.7	0.0	NE	0.00	17.0	NNE	79.9	83.6	83.6	30.115	0.00	0.00	0.000	0.621	88.2	37	58.6	87.7	1405	1	100.0	60
09/16/17	12:00 p	81.0	81.0	79.8	74	71.9	0.0	NE	0.00	12.0	ENE	81.0	85.2	85.2	30.105	0.00	0.00	0.000	0.667	87.3	33	54.7	86.0	1405	1	100.0	60
09/16/17	1:00 p	81.9	82.1	81.0	70	71.2	0.0	NE	0.00	12.0	ENE	81.9	86.1	86.1	30.091	0.00	0.00	0.000	0.704	89.8	36	59.3	89.9	1405	1	100.0	60
09/16/17	2:00 p	82.8	82.8	81.9	68	71.2	0.0	ENE	0.00	17.0	ENE	82.8	87.4	87.4	30.085	0.00	0.00	0.000	0.742	89.8	32	56.0	89.0	1405	1	100.0	60
09/16/17	3:00 p	82.4	82.9	82.3	68	70.8	0.0	NE	0.00	11.0	ENE	82.4	86.6	86.6	30.074	0.00	0.00	0.000	0.725	91.8	36	61.0	92.7	1405	1	100.0	60
09/16/17	4:00 p	82.4	82.6	82.0	67	70.3	0.0	NE	0.00	15.0	NE	82.4	86.4	86.4	30.072	0.00	0.00	0.000	0.725	91.6	31	56.7	91.1	1405	1	100.0	60
09/16/17	5:00 p	81.5	82.4	81.4	70	70.8	0.0	NE	0.00	11.0	NE	81.5	85.4	85.4	30.073	0.00	0.00	0.000	0.688	93.6	34	61.0	94.6	1405	1	100.0	60
09/16/17	6:00 p	79.4	81.5	79.4	77	71.6	0.0	NE	0.00	14.0	NE	79.4	83.0	83.0	30.074	0.00	0.00	0.000	0.600	90.7	31	55.9	90.0	1405	1	100.0	60
09/16/17	7:00 p	77.4	79.4	77.4	81	71.1	0.0	NE	0.00	14.0	ENE	77.4	80.7	80.7	30.073	0.00	0.00	0.000	0.517	89.9	31	55.2	89.0	1405	1	100.0	60
09/16/17	8:00 p	75.5	77.4	75.5	85	70.7	0.0	NE	0.00	5.0	NE	75.5	78.6	78.6	30.079	0.00	0.00	0.000	0.438	88.8	32	55.1	87.2	1405	1	100.0	60
09/16/17	9:00 p	73.8	75.5	73.8	89	70.4	0.0	NE	0.00	7.0	ENE	73.8	76.2	76.2	30.078	0.00	0.00	0.000	0.367	88.6	32	55.0	87.0	1404	1	100.0	60
09/16/17	10:00 p	72.5	73.8	72.5	90	69.4	0.0	---	0.00	0.0	---	72.5	74.8	74.8	30.075	0.00	0.00	0.000	0.313	86.6	32	53.2	85.2	1405	1	100.0	60
09/16/17	11:00 p	71.8	72.5	71.8	92	69.3	0.0	---	0.00	0.0	---	71.8	74.2	74.2	30.078	0.00	0.00	0.000	0.283	86.8	33	54.2	85.6	1405	1	100.0	60
09/17/17	12:00 a	70.8	71.8	70.8	94	69.0	0.0	---	0.00	0.0	---	70.8	73.4	73.4	30.075	0.00	0.00	0.000	0.242	81.2	34	50.2	79.6	1405	1	100.0	60

SUNDAY			Temp	Hi	Low	Out	Dew	Wind	Wind	Wind	Hi	Hi	Wind	Heat	THW			Rain	Heat	Cool	In 	In	In 	In 	Wind	Wind	ISS 	Arc.
Date		Time	Out	Temp	Temp	Hum	Pt.	Speed	Dir	Run	Speed	Dir	Chill	Index	Index	Bar  	Rain	Rate	D-D 	D-D 	Temp	Hum	Dew	Heat	Samp	Tx 	Recept	Int.
09/17/17	1:00 a	70.9	70.9	70.4	96	69.7	0.0	---	0.00	0.0	---	70.9	73.8	73.8	30.065	0.00	0.00	0.000	0.246	80.8	37	52.1	79.5	1404	1	100.0	60
09/17/17	2:00 a	71.9	71.9	70.9	96	70.7	0.0	---	0.00	0.0	---	71.9	74.9	74.9	30.056	0.00	0.00	0.000	0.288	80.6	38	52.6	79.4	1405	1	100.0	60
09/17/17	3:00 a	71.9	72.1	71.9	94	70.1	0.0	ENE	0.00	4.0	ENE	71.9	74.6	74.6	30.048	0.00	0.00	0.000	0.288	80.5	39	53.3	79.4	1405	1	100.0	60
09/17/17	4:00 a	72.1	72.1	71.8	91	69.3	0.0	NE	0.00	6.0	NE	72.1	74.4	74.4	30.053	0.00	0.00	0.000	0.296	80.3	39	53.1	79.2	1405	1	100.0	60
09/17/17	5:00 a	72.8	72.8	72.1	90	69.7	0.0	ENE	0.00	11.0	NE	72.8	75.2	75.2	30.058	0.00	0.00	0.000	0.325	80.2	40	53.7	79.2	1405	1	100.0	60
09/17/17	6:00 a	72.9	73.0	72.8	89	69.5	0.0	---	0.00	0.0	---	72.9	75.3	75.3	30.074	0.00	0.00	0.000	0.329	80.1	40	53.6	79.1	1405	1	100.0	60
09/17/17	7:00 a	72.7	72.9	72.7	92	70.2	0.0	NNE	0.00	4.0	NNE	72.7	75.3	75.3	30.085	0.00	0.00	0.000	0.321	83.6	34	52.3	82.5	1405	1	100.0	60
09/17/17	8:00 a	73.5	73.5	72.7	94	71.7	0.0	ENE	0.00	12.0	ENE	73.5	76.3	76.3	30.083	0.00	0.00	0.000	0.354	84.9	34	53.4	83.9	1405	1	100.0	60
09/17/17	9:00 a	75.1	75.1	73.5	87	71.0	0.0	NE	0.00	15.0	E	75.1	78.3	78.3	30.073	0.00	0.00	0.000	0.421	84.1	33	51.9	83.0	1404	1	100.0	60
09/17/17	10:00 a	76.7	76.7	75.1	85	71.8	0.0	NE	0.00	10.0	NNE	76.7	80.2	80.2	30.079	0.00	0.00	0.000	0.487	85.2	34	53.7	84.2	1405	1	100.0	60
09/17/17	11:00 a	77.2	77.3	76.7	83	71.6	0.0	NE	0.00	16.0	ENE	77.2	80.7	80.7	30.081	0.00	0.00	0.000	0.508	86.3	35	55.4	85.6	1405	1	100.0	60
09/17/17	12:00 p	78.3	78.6	77.2	82	72.3	4.0	NE	4.00	16.0	NNE	78.3	82.1	82.1	30.077	0.00	0.00	0.000	0.554	86.2	33	53.7	85.1	1405	1	100.0	60
09/17/17	1:00 p	77.7	78.6	77.7	83	72.1	0.0	NE	0.00	14.0	NE	77.7	81.4	81.4	30.069	0.00	0.00	0.000	0.529	87.5	35	56.5	86.5	1405	1	100.0	60
09/17/17	2:00 p	77.8	78.2	77.6	83	72.2	4.0	NE	4.00	15.0	NNE	77.8	81.5	81.5	30.053	0.00	0.00	0.000	0.533	87.0	33	54.4	85.8	1405	1	100.0	60
09/17/17	3:00 p	76.6	77.8	76.6	87	72.4	0.0	NE	0.00	16.0	NE	76.6	80.2	80.2	30.042	0.00	0.00	0.000	0.483	88.2	35	57.1	87.1	1405	1	100.0	60
09/17/17	4:00 p	76.1	76.6	76.0	88	72.3	4.0	NE	4.00	17.0	NNE	76.1	79.5	79.5	30.039	0.00	0.00	0.000	0.462	87.2	33	54.6	85.9	1405	1	100.0	60
09/17/17	5:00 p	75.5	76.1	75.5	87	71.4	0.0	ENE	0.00	10.0	ENE	75.5	78.7	78.7	30.042	0.00	0.00	0.000	0.438	87.5	35	56.5	86.5	1405	1	100.0	60
09/17/17	6:00 p	74.9	75.5	74.8	89	71.4	0.0	NE	0.00	13.0	NNE	74.9	78.1	78.1	30.038	0.00	0.00	0.000	0.413	86.2	33	53.7	85.1	1405	1	100.0	60
09/17/17	7:00 p	74.7	74.9	74.6	88	70.9	0.0	NE	0.00	11.0	NE	74.7	77.7	77.7	30.024	0.00	0.00	0.000	0.404	85.6	35	54.8	84.9	1405	1	100.0	60
09/17/17	8:00 p	74.3	74.7	74.3	89	70.8	0.0	NE	0.00	12.0	NE	74.3	76.9	76.9	30.030	0.00	0.00	0.000	0.388	85.3	34	53.8	84.3	1405	1	100.0	60
09/17/17	9:00 p	73.8	74.3	73.8	91	71.0	0.0	NE	0.00	13.0	ENE	73.8	76.3	76.3	30.035	0.00	0.00	0.000	0.367	84.3	34	52.9	83.4	1405	1	100.0	60
09/17/17	10:00 p	73.8	73.9	73.6	91	71.0	0.0	NE	0.00	14.0	NNE	73.8	76.3	76.3	30.031	0.00	0.00	0.000	0.367	84.5	36	54.6	83.9	1405	1	100.0	60
09/17/17	11:00 p	73.7	73.8	73.7	90	70.6	0.0	NE	0.00	12.0	NE	73.7	76.1	76.1	30.026	0.00	0.00	0.000	0.362	84.6	36	54.7	84.0	1404	1	100.0	60
09/18/17	12:00 a	73.8	73.9	73.7	91	71.0	0.0	NE	0.00	13.0	ENE	73.8	76.3	76.3	30.019	0.00	0.00	0.000	0.367	83.9	35	53.3	83.2	1405	1	100.0	60

MONDAY			Temp	Hi	Low	Out	Dew	Wind	Wind	Wind	Hi	Hi	Wind	Heat	THW			Rain	Heat	Cool	In 	In	In 	In 	Wind	Wind	ISS 	Arc.
Date		Time	Out	Temp	Temp	Hum	Pt.	Speed	Dir	Run	Speed	Dir	Chill	Index	Index	Bar  	Rain	Rate	D-D 	D-D 	Temp	Hum	Dew	Heat	Samp	Tx 	Recept	Int.
09/18/17	1:00 a	73.7	73.8	73.7	92	71.2	0.0	NE	0.00	12.0	E	73.7	76.3	76.3	30.011	0.00	0.00	0.000	0.362	83.6	36	53.8	82.9	1403	1	100.0	60
09/18/17	2:00 a	73.7	73.9	73.7	95	72.2	0.0	NE	0.00	7.0	NNE	73.7	76.6	76.6	30.008	0.00	0.00	0.000	0.362	83.7	37	54.7	83.2	1405	1	100.0	60
09/18/17	3:00 a	72.7	73.7	72.7	97	71.8	0.0	NE	0.00	10.0	NE	72.7	75.8	75.8	29.986	0.00	0.00	0.000	0.321	83.8	38	55.5	83.6	1405	1	100.0	60
09/18/17	4:00 a	72.6	72.7	72.5	97	71.7	0.0	ENE	0.00	7.0	ENE	72.6	75.7	75.7	29.971	0.00	0.00	0.000	0.317	83.8	38	55.5	83.6	1405	1	100.0	60
09/18/17	5:00 a	72.9	72.9	72.6	96	71.7	0.0	NE	0.00	4.0	NE	72.9	75.9	75.9	29.964	0.00	0.00	0.000	0.329	82.7	36	53.0	81.6	1405	1	100.0	60
09/18/17	6:00 a	73.3	73.3	72.9	95	71.8	0.0	NE	0.00	7.0	ENE	73.3	76.2	76.2	29.971	0.00	0.00	0.000	0.346	83.8	37	54.7	83.4	1405	1	100.0	60
09/18/17	7:00 a	73.4	73.5	73.3	95	71.9	0.0	NE	0.00	11.0	NNE	73.4	76.3	76.3	29.976	0.00	0.00	0.000	0.350	84.3	38	55.9	84.2	1405	1	100.0	60
09/18/17	8:00 a	73.6	73.6	73.3	94	71.8	0.0	NE	0.00	14.0	NNE	73.6	76.4	76.4	29.976	0.00	0.00	0.000	0.358	85.0	35	54.3	84.2	1405	1	100.0	60
09/18/17	9:00 a	74.5	74.6	73.6	91	71.7	4.0	NE	4.00	15.0	NE	74.5	77.5	77.5	29.986	0.00	0.00	0.000	0.396	80.8	42	55.6	80.0	1405	1	100.0	60
09/18/17	10:00 a	75.8	75.8	74.5	89	72.3	4.0	NE	4.00	18.0	NE	75.8	79.2	79.2	29.996	0.00	0.00	0.000	0.450	81.0	45	57.7	80.6	1405	1	100.0	60
09/18/17	11:00 a	77.0	77.2	75.8	85	72.1	4.0	NE	4.00	20.0	NE	77.0	80.6	80.6	29.989	0.00	0.00	0.000	0.500	81.1	43	56.5	80.5	1405	1	100.0	60
09/18/17	12:00 p	78.4	78.9	76.9	80	71.7	5.0	NE	5.00	23.0	ENE	78.4	82.0	82.0	29.975	0.00	0.00	0.000	0.558	82.9	44	58.7	83.2	1404	1	100.0	60
09/18/17	1:00 p	78.5	78.8	78.1	79	71.4	4.0	NE	4.00	18.0	ENE	78.5	81.9	81.9	29.967	0.00	0.00	0.000	0.563	83.1	44	58.9	83.5	1406	1	100.0	60
09/18/17	2:00 p	78.1	78.7	78.0	82	72.2	4.0	NE	4.00	17.0	NE	78.1	81.8	81.8	29.957	0.00	0.00	0.000	0.546	84.0	47	61.6	85.4	1404	1	100.0	60
09/18/17	3:00 p	78.4	78.9	78.0	83	72.8	4.0	NE	4.00	18.0	NE	78.4	82.4	82.4	29.940	0.00	0.00	0.000	0.558	83.4	39	55.8	83.2	1405	1	100.0	60
09/18/17	4:00 p	77.9	78.4	77.9	83	72.3	4.0	NE	4.00	21.0	NE	77.9	81.7	81.7	29.927	0.00	0.00	0.000	0.538	84.3	45	60.6	85.4	1405	1	100.0	60
09/18/17	5:00 p	76.2	77.9	75.5	89	72.7	5.0	NE	5.00	24.0	NNE	76.2	79.7	79.7	29.928	0.02	0.00	0.000	0.467	83.2	37	54.2	82.5	1405	1	100.0	60
09/18/17	6:00 p	75.8	76.6	75.8	88	72.0	5.0	NE	5.00	23.0	NE	75.8	79.2	79.2	29.923	0.00	0.00	0.000	0.450	83.7	42	58.2	84.1	1405	1	100.0	60
09/18/17	7:00 p	75.8	75.9	75.8	86	71.3	5.0	NE	5.00	21.0	ENE	75.8	79.0	79.0	29.921	0.00	0.00	0.000	0.450	82.7	36	53.0	81.6	1405	1	100.0	60
09/18/17	8:00 p	75.4	75.9	75.4	87	71.3	5.0	NE	5.00	21.0	NE	75.4	78.6	78.6	29.936	0.00	0.00	0.000	0.433	82.4	42	57.0	82.1	1405	1	100.0	60
09/18/17	9:00 p	74.4	75.4	74.4	87	70.3	5.0	NE	5.00	19.0	NE	74.4	77.0	77.0	29.934	0.00	0.00	0.000	0.392	82.4	43	57.7	82.3	1405	1	100.0	60
09/18/17	10:00 p	74.1	74.5	74.0	88	70.3	4.0	NE	4.00	15.0	NE	74.1	76.5	76.5	29.928	0.00	0.00	0.000	0.379	81.0	39	53.7	79.9	1405	1	100.0	60
09/18/17	11:00 p	74.2	74.3	74.1	88	70.4	5.0	NE	5.00	19.0	NNE	74.2	76.7	76.7	29.928	0.00	0.00	0.000	0.383	81.0	43	56.4	80.4	1405	1	100.0	60
09/19/17	12:00 a	73.8	74.2	73.7	88	70.0	5.0	NE	5.00	21.0	ENE	73.8	76.1	76.1	29.908	0.00	0.00	0.000	0.367	80.9	45	57.6	80.5	1405	1	100.0	60

TUESDAY			Temp	Hi	Low	Out	Dew	Wind	Wind	Wind	Hi	Hi	Wind	Heat	THW			Rain	Heat	Cool	In 	In	In 	In 	Wind	Wind	ISS 	Arc.
Date		Time	Out	Temp	Temp	Hum	Pt.	Speed	Dir	Run	Speed	Dir	Chill	Index	Index	Bar  	Rain	Rate	D-D 	D-D 	Temp	Hum	Dew	Heat	Samp	Tx 	Recept	Int.
09/19/17	1:00 a	73.6	73.8	73.6	89	70.2	4.0	NE	4.00	20.0	NE	73.6	76.0	76.0	29.887	0.00	0.00	0.000	0.358	79.7	42	54.6	79.0	1403	1	100.0	60
09/19/17	2:00 a	73.6	73.7	73.5	89	70.2	4.0	NW	4.00	23.0	NW	73.6	76.0	76.0	29.875	0.00	0.00	0.000	0.358	79.8	44	55.9	79.3	1405	1	100.0	60
09/19/17	3:00 a	73.5	73.6	73.4	89	70.1	4.0	NNW	4.00	25.0	ENE	73.5	75.9	75.9	29.860	0.00	0.00	0.000	0.354	79.9	45	56.7	79.5	1405	1	100.0	60
09/19/17	4:00 a	73.4	73.5	73.3	89	70.0	4.0	NW	4.00	22.0	NW	73.4	75.8	75.8	29.843	0.00	0.00	0.000	0.350	79.9	46	57.3	79.6	1405	1	100.0	60
09/19/17	5:00 a	73.5	73.5	73.2	89	70.1	5.0	NNW	5.00	24.0	NW	73.5	75.9	75.9	29.840	0.00	0.00	0.000	0.354	78.8	44	55.0	78.4	1405	1	100.0	60
09/19/17	6:00 a	72.7	73.5	72.7	91	69.9	4.0	NW	4.00	18.0	NNW	72.7	75.2	75.2	29.847	0.00	0.00	0.000	0.321	79.0	45	55.8	78.7	1405	1	100.0	60
09/19/17	7:00 a	72.7	72.8	72.6	89	69.3	4.0	NW	4.00	20.0	WNW	72.7	75.0	75.0	29.846	0.00	0.00	0.000	0.321	82.4	44	58.3	82.4	1405	1	100.0	60
09/19/17	8:00 a	72.5	72.7	72.5	90	69.4	5.0	NW	5.00	21.0	WNW	72.5	74.8	74.8	29.854	0.00	0.00	0.000	0.313	84.6	41	58.3	85.0	1405	1	100.0	60
09/19/17	9:00 a	71.1	72.5	71.1	96	69.9	4.0	N	4.00	17.0	WNW	71.1	74.0	74.0	29.859	0.06	0.63	0.000	0.254	84.0	44	59.7	84.9	1405	1	100.0	60
09/19/17	10:00 a	71.8	71.8	71.1	92	69.3	0.0	NW	0.00	18.0	NNW	71.8	74.2	74.2	29.866	0.00	0.00	0.000	0.283	85.3	47	62.8	86.7	1405	1	100.0	60
09/19/17	11:00 a	72.9	73.2	71.8	90	69.8	4.0	NW	4.00	21.0	NW	72.9	75.4	75.4	29.875	0.00	0.00	0.000	0.329	82.7	46	59.8	83.2	1405	1	100.0	60
09/19/17	12:00 p	72.2	72.9	71.8	94	70.4	5.0	NW	5.00	24.0	NW	72.2	74.9	74.9	29.866	0.02	0.09	0.000	0.300	80.1	47	58.0	79.9	1405	1	100.0	60
09/19/17	1:00 p	73.6	73.6	72.2	92	71.1	5.0	NW	5.00	21.0	NNW	73.6	76.2	76.2	29.865	0.00	0.00	0.000	0.358	80.4	49	59.5	80.4	1405	1	100.0	60
09/19/17	2:00 p	73.4	73.6	73.0	91	70.6	4.0	NNW	4.00	21.0	WNW	73.4	75.9	75.9	29.855	0.01	0.00	0.000	0.350	80.8	50	60.4	81.0	1405	1	100.0	60
09/19/17	3:00 p	73.9	73.9	73.2	90	70.8	4.0	NNW	4.00	20.0	NNW	73.9	76.3	76.3	29.842	0.01	0.00	0.000	0.371	79.8	45	56.6	79.4	1404	1	100.0	60
09/19/17	4:00 p	76.3	76.3	74.0	87	72.1	4.0	NW	4.00	18.0	NNW	76.3	79.8	79.8	29.838	0.00	0.00	0.000	0.471	80.5	47	58.4	80.3	1405	1	100.0	60
09/19/17	5:00 p	76.2	76.4	75.6	84	71.0	5.0	NW	5.00	21.0	NW	76.2	79.4	79.4	29.838	0.00	0.00	0.000	0.467	80.8	44	56.9	80.3	1405	1	100.0	60
09/19/17	6:00 p	73.0	76.3	73.0	94	71.2	4.0	NW	4.00	18.0	NE	73.0	75.7	75.7	29.853	0.10	2.23	0.000	0.333	80.1	45	56.8	79.7	1406	1	100.0	60
09/19/17	7:00 p	72.0	72.9	72.0	97	71.1	0.0	N	0.00	6.0	NNW	72.0	75.1	75.1	29.842	0.00	0.00	0.000	0.292	80.1	47	58.0	79.9	1404	1	100.0	60
09/19/17	8:00 p	72.0	72.2	72.0	95	70.5	0.0	NNW	0.00	7.0	NNW	72.0	74.8	74.8	29.854	0.00	0.00	0.000	0.292	83.0	44	58.8	83.3	1405	1	100.0	60
09/19/17	9:00 p	72.2	72.2	71.9	94	70.4	0.0	N	0.00	10.0	N	72.2	74.9	74.9	29.862	0.00	0.00	0.000	0.300	83.0	37	54.0	82.2	1405	1	100.0	60
09/19/17	10:00 p	72.1	72.4	72.1	94	70.3	0.0	---	0.00	0.0	---	72.1	74.8	74.8	29.867	0.00	0.00	0.000	0.296	82.4	41	56.3	82.0	1405	1	100.0	60
09/19/17	11:00 p	71.7	72.1	71.7	96	70.5	0.0	---	0.00	0.0	---	71.7	74.6	74.6	29.873	0.00	0.00	0.000	0.279	82.3	42	56.9	82.0	1405	1	100.0	60
09/20/17	12:00 a	71.5	71.7	71.5	96	70.3	0.0	---	0.00	0.0	---	71.5	74.4	74.4	29.868	0.00	0.00	0.000	0.271	82.9	42	57.5	82.9	1405	1	100.0	60

WEDNESDAY		Temp	Hi	Low	Out	Dew	Wind	Wind	Wind	Hi	Hi	Wind	Heat	THW			Rain	Heat	Cool	In 	In	In 	In 	Wind	Wind	ISS 	Arc.
Date		Time	Out	Temp	Temp	Hum	Pt.	Speed	Dir	Run	Speed	Dir	Chill	Index	Index	Bar  	Rain	Rate	D-D 	D-D 	Temp	Hum	Dew	Heat	Samp	Tx 	Recept	Int.
09/20/17	1:00 a	71.9	71.9	71.5	95	70.4	0.0	WNW	0.00	10.0	WNW	71.9	74.7	74.7	29.869	0.00	0.00	0.000	0.288	83.2	42	57.7	83.3	1404	1	100.0	60
09/20/17	2:00 a	72.0	72.1	71.9	94	70.2	0.0	---	0.00	0.0	---	72.0	74.7	74.7	29.869	0.00	0.00	0.000	0.292	83.2	42	57.7	83.3	1405	1	100.0	60
09/20/17	3:00 a	70.8	72.0	70.8	95	69.3	0.0	---	0.00	0.0	---	70.8	73.5	73.5	29.863	0.00	0.00	0.000	0.242	83.1	41	57.0	83.0	1404	1	100.0	60
09/20/17	4:00 a	70.1	70.8	70.1	95	68.6	0.0	---	0.00	0.0	---	70.1	72.6	72.6	29.865	0.00	0.00	0.000	0.212	82.3	40	55.6	81.7	1405	1	100.0	60
09/20/17	5:00 a	69.4	70.1	69.4	95	67.9	0.0	W	0.00	4.0	W	69.4	71.8	71.8	29.873	0.00	0.00	0.000	0.183	82.3	41	56.2	81.9	1405	1	100.0	60
09/20/17	6:00 a	69.2	69.4	69.2	94	67.4	0.0	---	0.00	0.0	---	69.2	71.5	71.5	29.885	0.00	0.00	0.000	0.175	81.7	42	56.4	81.1	1405	1	100.0	60
09/20/17	7:00 a	68.9	69.2	68.9	94	67.1	0.0	---	0.00	0.0	---	68.9	71.1	71.1	29.902	0.00	0.00	0.000	0.163	82.2	42	56.8	81.8	1405	1	100.0	60

			Temp	Hi	Low	Out	Dew	Wind	Wind	Wind	Hi	Hi	Wind	Heat	THW			Rain	Heat	Cool	In 	In	In 	In 	Wind	Wind	ISS 	Arc.
Date		Time	Out	Temp	Temp	Hum	Pt.	Speed	Dir	Run	Speed	Dir	Chill	Index	Index	Bar  	Rain	Rate	D-D 	D-D 	Temp	Hum	Dew	Heat	Samp	Tx 	Recept	Int.